Time,TemperatureF,DewpointF,PressureIn,WindDirection,WindDirectionDegrees,WindSpeedMPH,WindSpeedGustMPH,Humidity,HourlyPrecipIn,Conditions,Clouds,dailyrainin,SoftwareType,DateUTC
2013-10-25 06:57:00,43.4,32.0,30.29,NNE,17,0.0,4.0,64,0.00,,---,0.00,VWS V13.01,2013-10-25 11:57:00,
2013-10-25 06:58:00,29.6,27.6,30.50,NNE,17,0.0,4.0,92,0.00,,---,0.00,VWS V13.01,2013-10-25 11:58:00,
2013-10-25 06:59:00,29.6,27.6,30.50,NNE,17,0.0,4.0,92,0.01,,---,0.00,VWS V13.01,2013-10-25 11:59:00,
2013-10-25 07:00:00,29.7,27.7,30.50,NNE,17,0.0,4.0,92,0.01,,---,0.00,VWS V13.01,2013-10-25 12:00:00,
2013-10-25 07:01:00,29.7,27.7,30.50,NNE,17,0.0,0.0,92,0.01,,---,0.00,VWS V13.01,2013-10-25 12:01:00,
2013-10-25 07:02:00,29.7,27.7,30.50,NNE,17,0.0,0.0,92,0.01,,---,0.00,VWS V13.01,2013-10-25 12:02:00,
2013-10-25 07:03:00,29.7,27.7,30.50,NNE,17,0.0,0.0,92,0.01,,---,0.00,VWS V13.01,2013-10-25 12:03:00,
2013-10-25 07:04:00,29.7,27.7,30.50,NNE,17,0.0,0.0,92,0.01,,---,0.00,VWS V13.01,2013-10-25 12:04:00,
2013-10-25 07:05:00,29.8,27.8,30.50,NNE,17,0.0,0.0,92,0.01,,---,0.00,VWS V13.01,2013-10-25 12:05:00,
2013-10-25 07:06:00,29.8,27.8,30.50,NNE,17,0.0,0.0,92,0.01,,---,0.00,VWS V13.01,2013-10-25 12:06:00,
2013-10-25 07:07:00,29.8,27.8,30.50,NNE,17,0.0,0.0,92,0.01,,---,0.00,VWS V13.01,2013-10-25 12:07:00,
2013-10-25 07:08:00,29.9,27.9,30.50,NNE,17,0.0,0.0,92,0.01,,---,0.00,VWS V13.01,2013-10-25 12:08:00,
2013-10-25 07:09:00,29.9,27.9,30.50,NNE,17,0.0,0.0,92,0.01,,---,0.00,VWS V13.01,2013-10-25 12:09:00,
2013-10-25 07:10:00,29.9,27.9,30.50,NNE,17,0.0,0.0,92,0.01,,---,0.00,VWS V13.01,2013-10-25 12:10:00,
2013-10-25 07:11:00,29.9,27.9,30.50,NNE,17,0.0,0.0,92,0.01,,---,0.00,VWS V13.01,2013-10-25 12:11:00,
2013-10-25 07:12:00,30.0,28.0,30.50,NNE,17,0.0,0.0,92,0.01,,---,0.00,VWS V13.01,2013-10-25 12:12:00,
2013-10-25 07:13:00,30.0,28.0,30.50,NNE,17,0.0,0.0,92,0.01,,---,0.00,VWS V13.01,2013-10-25 12:13:00,
2013-10-25 07:14:00,30.1,28.1,30.50,NNE,17,0.0,0.0,92,0.01,,---,0.00,VWS V13.01,2013-10-25 12:14:00,
2013-10-25 07:15:00,30.1,28.3,30.50,NNE,17,0.0,0.0,93,0.01,,---,0.00,VWS V13.01,2013-10-25 12:15:00,
2013-10-25 07:16:00,30.2,28.4,30.50,NNE,17,0.0,0.0,93,0.01,,---,0.00,VWS V13.01,2013-10-25 12:16:00,
2013-10-25 07:17:00,30.2,28.4,30.50,NNE,17,0.0,0.0,93,0.01,,---,0.00,VWS V13.01,2013-10-25 12:17:00,
2013-10-25 07:18:00,30.3,28.5,30.51,NNE,17,0.0,0.0,93,0.01,,---,0.00,VWS V13.01,2013-10-25 12:18:00,
2013-10-25 07:19:00,30.3,28.5,30.51,NNE,17,0.0,0.0,93,0.01,,---,0.00,VWS V13.01,2013-10-25 12:19:00,
2013-10-25 07:20:00,30.4,28.6,30.51,NNE,17,0.0,0.0,93,0.01,,---,0.00,VWS V13.01,2013-10-25 12:20:00,
2013-10-25 07:21:00,30.5,28.7,30.51,NNE,17,0.0,0.0,93,0.01,,---,0.00,VWS V13.01,2013-10-25 12:21:00,
2013-10-25 07:22:00,30.5,28.7,30.51,NNE,17,0.0,0.0,93,0.01,,---,0.00,VWS V13.01,2013-10-25 12:22:00,
2013-10-25 07:23:00,30.6,28.8,30.51,NNE,17,0.0,0.0,93,0.01,,---,0.00,VWS V13.01,2013-10-25 12:23:00,
2013-10-25 07:24:00,30.7,28.7,30.51,NNE,17,0.0,0.0,92,0.01,,---,0.00,VWS V13.01,2013-10-25 12:24:00,
2013-10-25 07:25:00,30.8,29.0,30.51,NNE,17,0.0,0.0,93,0.01,,---,0.00,VWS V13.01,2013-10-25 12:25:00,
2013-10-25 07:26:00,30.8,29.0,30.51,NNE,17,0.0,0.0,93,0.01,,---,0.00,VWS V13.01,2013-10-25 12:26:00,
2013-10-25 07:27:00,30.9,29.1,30.51,NNE,17,0.0,0.0,93,0.01,,---,0.00,VWS V13.01,2013-10-25 12:27:00,
2013-10-25 07:28:00,30.9,28.9,30.51,NNE,17,0.0,0.0,92,0.01,,---,0.00,VWS V13.01,2013-10-25 12:28:00,
2013-10-25 07:29:00,31.0,29.0,30.51,NNE,17,0.0,0.0,92,0.01,,---,0.00,VWS V13.01,2013-10-25 12:29:00,
2013-10-25 07:30:00,31.1,29.0,30.51,NNE,17,0.0,0.0,92,0.01,,---,0.00,VWS V13.01,2013-10-25 12:30:00,
2013-10-25 07:31:00,31.2,29.1,30.51,NNE,17,0.0,0.0,92,0.01,,---,0.00,VWS V13.01,2013-10-25 12:31:00,
2013-10-25 07:32:00,31.2,29.1,30.51,NNE,17,0.0,0.0,92,0.01,,---,0.00,VWS V13.01,2013-10-25 12:32:00,
2013-10-25 07:33:00,31.3,29.5,30.51,NNE,17,0.0,0.0,93,0.01,,---,0.00,VWS V13.01,2013-10-25 12:33:00,
2013-10-25 07:34:00,31.4,29.6,30.51,NNE,17,0.0,0.0,93,0.01,,---,0.00,VWS V13.01,2013-10-25 12:34:00,
2013-10-25 07:35:00,31.4,29.6,30.51,NNE,17,0.0,0.0,93,0.01,,---,0.00,VWS V13.01,2013-10-25 12:35:00,
2013-10-25 07:36:00,31.5,29.5,30.51,NNE,17,0.0,0.0,92,0.01,,---,0.00,VWS V13.01,2013-10-25 12:36:00,
2013-10-25 07:37:00,31.6,29.5,30.51,NNE,17,0.0,0.0,92,0.01,,---,0.00,VWS V13.01,2013-10-25 12:37:00,
2013-10-25 07:38:00,31.7,29.6,30.51,NNE,17,0.0,0.0,92,0.01,,---,0.00,VWS V13.01,2013-10-25 12:38:00,
2013-10-25 07:39:00,31.7,29.6,30.51,NNE,17,0.0,0.0,92,0.01,,---,0.00,VWS V13.01,2013-10-25 12:39:00,
2013-10-25 07:40:00,31.9,29.8,30.51,NNE,17,0.0,0.0,92,0.01,,---,0.00,VWS V13.01,2013-10-25 12:40:00,
2013-10-25 07:41:00,31.9,30.1,30.51,NNE,17,0.0,0.0,93,0.01,,---,0.00,VWS V13.01,2013-10-25 12:41:00,
2013-10-25 07:42:00,32.1,30.3,30.51,NNE,17,0.0,1.0,93,0.01,,---,0.00,VWS V13.01,2013-10-25 12:42:00,
2013-10-25 07:43:00,32.1,30.3,30.51,NNE,17,0.0,1.0,93,0.01,,---,0.00,VWS V13.01,2013-10-25 12:43:00,
2013-10-25 07:44:00,32.3,30.5,30.51,NNE,17,0.0,1.0,93,0.01,,---,0.00,VWS V13.01,2013-10-25 12:44:00,
2013-10-25 07:45:00,32.3,30.5,30.51,NNE,17,0.0,1.0,93,0.01,,---,0.00,VWS V13.01,2013-10-25 12:45:00,
2013-10-25 07:46:00,32.4,30.6,30.52,NNE,17,0.0,1.0,93,0.01,,---,0.00,VWS V13.01,2013-10-25 12:46:00,
2013-10-25 07:47:00,32.6,30.8,30.52,NNE,17,0.0,1.0,93,0.01,,---,0.00,VWS V13.01,2013-10-25 12:47:00,
2013-10-25 07:48:00,32.7,30.6,30.52,NNE,17,0.0,1.0,92,0.01,,---,0.00,VWS V13.01,2013-10-25 12:48:00,
2013-10-25 07:49:00,32.8,30.7,30.52,NNE,17,0.0,1.0,92,0.01,,---,0.00,VWS V13.01,2013-10-25 12:49:00,
2013-10-25 07:50:00,32.9,30.8,30.52,NNE,17,0.0,1.0,92,0.01,,---,0.00,VWS V13.01,2013-10-25 12:50:00,
2013-10-25 07:51:00,33.0,30.9,30.52,NNE,17,0.0,1.0,92,0.01,,---,0.00,VWS V13.01,2013-10-25 12:51:00,
2013-10-25 07:52:00,33.1,31.0,30.52,NNE,17,0.0,1.0,92,0.01,,---,0.00,VWS V13.01,2013-10-25 12:52:00,
2013-10-25 07:53:00,33.2,31.1,30.52,NNE,17,0.0,1.0,92,0.01,,---,0.00,VWS V13.01,2013-10-25 12:53:00,
2013-10-25 07:54:00,33.2,31.1,30.52,NNE,17,0.0,1.0,92,0.01,,---,0.00,VWS V13.01,2013-10-25 12:54:00,
2013-10-25 07:55:00,33.4,31.3,30.53,NNE,17,0.0,1.0,92,0.01,,---,0.00,VWS V13.01,2013-10-25 12:55:00,
2013-10-25 07:56:00,33.5,31.4,30.53,NNE,17,0.0,1.0,92,0.01,,---,0.00,VWS V13.01,2013-10-25 12:56:00,
2013-10-25 07:57:00,33.6,31.5,30.53,NNE,17,0.0,1.0,92,0.01,,---,0.00,VWS V13.01,2013-10-25 12:57:00,
2013-10-25 07:58:00,33.7,31.6,30.53,NNE,17,0.0,1.0,92,0.01,,---,0.00,VWS V13.01,2013-10-25 12:58:00,
2013-10-25 07:59:00,33.8,31.7,30.53,NNE,17,0.0,1.0,92,0.01,,---,0.00,VWS V13.01,2013-10-25 12:59:00,
2013-10-25 08:00:00,33.9,31.6,30.53,NNE,17,0.0,1.0,91,0.01,,---,0.00,VWS V13.01,2013-10-25 13:00:00,
2013-10-25 08:01:00,34.0,31.6,30.53,NNE,17,0.0,0.0,91,0.00,,---,0.00,VWS V13.01,2013-10-25 13:01:00,
2013-10-25 08:02:00,34.1,31.8,30.53,NNE,17,0.0,1.0,91,0.00,,---,0.00,VWS V13.01,2013-10-25 13:02:00,
2013-10-25 08:03:00,34.1,31.8,30.52,NNE,17,1.0,1.0,91,0.00,,---,0.00,VWS V13.01,2013-10-25 13:03:00,
2013-10-25 08:04:00,34.3,32.0,30.53,NNE,17,2.0,2.0,91,0.00,,---,0.00,VWS V13.01,2013-10-25 13:04:00,
2013-10-25 08:05:00,34.4,32.0,30.53,NNE,17,0.0,2.0,91,0.00,,---,0.00,VWS V13.01,2013-10-25 13:05:00,
2013-10-25 08:06:00,34.4,31.8,30.53,NNE,17,0.0,2.0,90,0.00,,---,0.00,VWS V13.01,2013-10-25 13:06:00,
2013-10-25 08:07:00,34.4,31.8,30.53,NNE,17,1.0,2.0,90,0.00,,---,0.00,VWS V13.01,2013-10-25 13:07:00,
2013-10-25 08:08:00,34.4,31.8,30.53,NNE,17,1.0,3.0,90,0.00,,---,0.00,VWS V13.01,2013-10-25 13:08:00,
2013-10-25 08:09:00,34.4,31.5,30.53,NNE,17,0.0,3.0,89,0.00,,---,0.01,VWS V13.01,2013-10-25 13:09:00,
2013-10-25 08:10:00,34.5,31.6,30.53,NNE,17,0.0,3.0,89,0.01,,---,0.01,VWS V13.01,2013-10-25 13:10:00,
2013-10-25 08:11:00,34.6,31.7,30.53,NNE,17,0.0,3.0,89,0.01,,---,0.01,VWS V13.01,2013-10-25 13:11:00,
2013-10-25 08:12:00,34.7,31.8,30.53,NNE,17,0.0,3.0,89,0.01,,---,0.01,VWS V13.01,2013-10-25 13:12:00,
2013-10-25 08:13:00,34.8,31.9,30.53,NNE,17,0.0,3.0,89,0.01,,---,0.01,VWS V13.01,2013-10-25 13:13:00,
2013-10-25 08:14:00,34.9,32.0,30.53,NNE,17,0.0,3.0,89,0.01,,---,0.01,VWS V13.01,2013-10-25 13:14:00,
2013-10-25 08:15:00,35.0,32.4,30.53,NNE,17,0.0,3.0,90,0.01,,---,0.01,VWS V13.01,2013-10-25 13:15:00,
2013-10-25 08:16:00,35.1,32.5,30.53,NNE,17,0.0,3.0,90,0.01,,---,0.01,VWS V13.01,2013-10-25 13:16:00,
2013-10-25 08:17:00,35.2,32.3,30.53,NNE,17,1.0,3.0,89,0.01,,---,0.01,VWS V13.01,2013-10-25 13:17:00,
2013-10-25 08:18:00,35.3,32.4,30.53,NNE,17,0.0,3.0,89,0.01,,---,0.01,VWS V13.01,2013-10-25 13:18:00,
2013-10-25 08:19:00,35.4,32.5,30.53,NNE,17,0.0,3.0,89,0.01,,---,0.01,VWS V13.01,2013-10-25 13:19:00,
2013-10-25 08:20:00,35.5,32.6,30.53,NNE,17,0.0,3.0,89,0.01,,---,0.01,VWS V13.01,2013-10-25 13:20:00,
2013-10-25 08:21:00,35.6,32.7,30.53,NNE,17,0.0,3.0,89,0.01,,---,0.01,VWS V13.01,2013-10-25 13:21:00,
2013-10-25 08:22:00,35.7,32.8,30.53,NNE,17,0.0,3.0,89,0.01,,---,0.01,VWS V13.01,2013-10-25 13:22:00,
2013-10-25 08:23:00,35.7,32.8,30.53,NNE,17,0.0,3.0,89,0.01,,---,0.01,VWS V13.01,2013-10-25 13:23:00,
2013-10-25 08:24:00,35.8,32.6,30.53,NNE,17,0.0,3.0,88,0.01,,---,0.01,VWS V13.01,2013-10-25 13:24:00,
2013-10-25 08:25:00,35.9,32.7,30.53,NNE,17,1.0,3.0,88,0.01,,---,0.01,VWS V13.01,2013-10-25 13:25:00,
2013-10-25 08:26:00,36.0,32.8,30.53,NNE,17,2.0,3.0,88,0.01,,---,0.01,VWS V13.01,2013-10-25 13:26:00,
2013-10-25 08:27:00,36.0,32.5,30.53,NNE,17,2.0,3.0,87,0.01,,---,0.01,VWS V13.01,2013-10-25 13:27:00,
2013-10-25 08:28:00,36.0,32.5,30.53,NNE,17,1.0,3.0,87,0.01,,---,0.01,VWS V13.01,2013-10-25 13:28:00,
2013-10-25 08:29:00,36.1,32.6,30.53,NNE,17,0.0,3.0,87,0.01,,---,0.02,VWS V13.01,2013-10-25 13:29:00,
2013-10-25 08:30:00,36.1,32.6,30.53,NNE,17,2.0,3.0,87,0.02,,---,0.02,VWS V13.01,2013-10-25 13:30:00,
2013-10-25 08:31:00,36.1,32.6,30.53,NNE,17,1.0,3.0,87,0.02,,---,0.02,VWS V13.01,2013-10-25 13:31:00,
2013-10-25 08:32:00,36.1,32.3,30.53,NNE,17,0.0,3.0,86,0.02,,---,0.02,VWS V13.01,2013-10-25 13:32:00,
2013-10-25 08:33:00,36.1,32.3,30.53,NNE,17,3.0,3.0,86,0.02,,---,0.02,VWS V13.01,2013-10-25 13:33:00,
2013-10-25 08:34:00,36.2,32.4,30.53,NNE,17,0.0,3.0,86,0.02,,---,0.03,VWS V13.01,2013-10-25 13:34:00,
2013-10-25 08:35:00,36.2,32.4,30.53,NNE,17,0.0,3.0,86,0.03,,---,0.03,VWS V13.01,2013-10-25 13:35:00,
2013-10-25 08:36:00,36.2,32.4,30.53,NNE,17,0.0,3.0,86,0.03,,---,0.03,VWS V13.01,2013-10-25 13:36:00,
2013-10-25 08:37:00,36.3,32.5,30.53,NNE,17,0.0,3.0,86,0.03,,---,0.04,VWS V13.01,2013-10-25 13:37:00,
2013-10-25 08:38:00,36.3,32.5,30.53,NNE,17,2.0,3.0,86,0.04,,---,0.04,VWS V13.01,2013-10-25 13:38:00,
2013-10-25 08:39:00,36.4,32.6,30.53,NNE,17,0.0,3.0,86,0.04,,---,0.04,VWS V13.01,2013-10-25 13:39:00,
2013-10-25 08:40:00,36.4,32.6,30.53,NNE,17,1.0,3.0,86,0.04,,---,0.04,VWS V13.01,2013-10-25 13:40:00,
2013-10-25 08:41:00,36.4,32.3,30.53,NNE,17,0.0,3.0,85,0.04,,---,0.05,VWS V13.01,2013-10-25 13:41:00,
2013-10-25 08:42:00,36.5,32.7,30.53,NNE,17,2.0,3.0,86,0.05,,---,0.05,VWS V13.01,2013-10-25 13:42:00,
2013-10-25 08:43:00,36.6,32.8,30.53,NNE,17,4.0,5.0,86,0.05,,---,0.05,VWS V13.01,2013-10-25 13:43:00,
2013-10-25 08:44:00,36.7,32.6,30.53,NNE,17,3.0,5.0,85,0.05,,---,0.06,VWS V13.01,2013-10-25 13:44:00,
2013-10-25 08:45:00,36.8,32.7,30.53,NNE,17,4.0,5.0,85,0.06,,---,0.06,VWS V13.01,2013-10-25 13:45:00,
2013-10-25 08:46:00,36.8,32.1,30.53,NNE,17,1.0,5.0,83,0.06,,---,0.06,VWS V13.01,2013-10-25 13:46:00,
2013-10-25 08:47:00,36.9,32.5,30.53,NNE,17,2.0,5.0,84,0.06,,---,0.06,VWS V13.01,2013-10-25 13:47:00,
2013-10-25 08:48:00,37.0,32.6,30.53,NNE,17,1.0,5.0,84,0.06,,---,0.07,VWS V13.01,2013-10-25 13:48:00,
2013-10-25 08:49:00,37.1,32.7,30.53,NNE,17,3.0,5.0,84,0.07,,---,0.07,VWS V13.01,2013-10-25 13:49:00,
2013-10-25 08:50:00,37.1,32.7,30.53,NNE,17,1.0,5.0,84,0.07,,---,0.07,VWS V13.01,2013-10-25 13:50:00,
2013-10-25 08:51:00,37.3,33.2,30.53,NNE,17,2.0,5.0,85,0.07,,---,0.08,VWS V13.01,2013-10-25 13:51:00,
2013-10-25 08:52:00,37.4,33.0,30.53,NNE,17,2.0,5.0,84,0.08,,---,0.08,VWS V13.01,2013-10-25 13:52:00,
2013-10-25 08:53:00,37.5,33.1,30.53,NNE,17,3.0,5.0,84,0.08,,---,0.08,VWS V13.01,2013-10-25 13:53:00,
2013-10-25 08:54:00,37.5,33.1,30.53,NNE,17,1.0,5.0,84,0.08,,---,0.08,VWS V13.01,2013-10-25 13:54:00,
2013-10-25 08:55:00,37.6,32.9,30.53,NNE,17,3.0,5.0,83,0.08,,---,0.08,VWS V13.01,2013-10-25 13:55:00,
2013-10-25 08:56:00,37.7,33.0,30.53,NNE,17,2.0,5.0,83,0.08,,---,0.09,VWS V13.01,2013-10-25 13:56:00,
2013-10-25 08:57:00,37.8,33.1,30.53,NNE,17,2.0,5.0,83,0.09,,---,0.09,VWS V13.01,2013-10-25 13:57:00,
2013-10-25 08:58:00,37.9,33.2,30.54,NNE,17,3.0,5.0,83,0.09,,---,0.09,VWS V13.01,2013-10-25 13:58:00,
2013-10-25 08:59:00,37.9,32.9,30.54,NNE,17,1.0,5.0,82,0.09,,---,0.09,VWS V13.01,2013-10-25 13:59:00,
2013-10-25 09:00:00,38.0,33.3,30.54,NNE,17,6.0,6.0,83,0.09,,---,0.10,VWS V13.01,2013-10-25 14:00:00,
2013-10-25 09:01:00,38.1,33.1,30.54,NNE,17,6.0,6.0,82,0.10,,---,0.10,VWS V13.01,2013-10-25 14:01:00,
2013-10-25 09:02:00,38.2,32.9,30.53,NNE,17,3.0,6.0,81,0.10,,---,0.10,VWS V13.01,2013-10-25 14:02:00,
2013-10-25 09:03:00,38.2,32.6,30.54,NNE,17,2.0,6.0,80,0.10,,---,0.10,VWS V13.01,2013-10-25 14:03:00,
2013-10-25 09:04:00,38.2,32.9,30.54,NNE,17,3.0,6.0,81,0.10,,---,0.10,VWS V13.01,2013-10-25 14:04:00,
2013-10-25 09:05:00,38.3,33.0,30.53,NNE,17,2.0,7.0,81,0.10,,---,0.10,VWS V13.01,2013-10-25 14:05:00,
2013-10-25 09:06:00,38.4,33.1,30.53,NNE,17,4.0,7.0,81,0.10,,---,0.10,VWS V13.01,2013-10-25 14:06:00,
2013-10-25 09:07:00,38.5,33.2,30.53,NNE,17,2.0,7.0,81,0.10,,---,0.11,VWS V13.01,2013-10-25 14:07:00,
2013-10-25 09:08:00,38.6,33.3,30.53,NNE,17,0.0,7.0,81,0.11,,---,0.11,VWS V13.01,2013-10-25 14:08:00,
2013-10-25 09:09:00,38.7,33.7,30.53,NNE,17,3.0,7.0,82,0.11,,---,0.11,VWS V13.01,2013-10-25 14:09:00,
2013-10-25 09:10:00,38.9,33.9,30.53,NNE,17,4.0,8.0,82,0.11,,---,0.11,VWS V13.01,2013-10-25 14:10:00,
2013-10-25 09:11:00,39.0,33.4,30.54,NNE,17,1.0,8.0,80,0.11,,---,0.11,VWS V13.01,2013-10-25 14:11:00,
2013-10-25 09:12:00,39.1,33.2,30.54,NNE,17,0.0,8.0,79,0.11,,---,0.11,VWS V13.01,2013-10-25 14:12:00,
2013-10-25 09:13:00,39.1,33.2,30.54,NNE,17,0.0,8.0,79,0.11,,---,0.12,VWS V13.01,2013-10-25 14:13:00,
2013-10-25 09:14:00,39.2,33.2,30.53,NNE,17,2.0,8.0,79,0.12,,---,0.12,VWS V13.01,2013-10-25 14:14:00,
2013-10-25 09:15:00,39.3,33.3,30.54,NNE,17,2.0,8.0,79,0.12,,---,0.12,VWS V13.01,2013-10-25 14:15:00,
2013-10-25 09:16:00,39.3,33.7,30.54,NNE,17,1.0,8.0,80,0.12,,---,0.12,VWS V13.01,2013-10-25 14:16:00,
2013-10-25 09:17:00,39.4,33.8,30.53,NNE,17,3.0,8.0,80,0.12,,---,0.12,VWS V13.01,2013-10-25 14:17:00,
2013-10-25 09:18:00,39.5,33.5,30.53,NNE,17,1.0,8.0,79,0.12,,---,0.12,VWS V13.01,2013-10-25 14:18:00,
2013-10-25 09:19:00,39.5,33.5,30.53,NNE,17,3.0,8.0,79,0.12,,---,0.12,VWS V13.01,2013-10-25 14:19:00,
2013-10-25 09:20:00,39.6,33.6,30.53,NNE,17,0.0,8.0,79,0.12,,---,0.12,VWS V13.01,2013-10-25 14:20:00,
2013-10-25 09:21:00,39.7,34.4,30.54,NNE,17,0.0,8.0,81,0.12,,---,0.12,VWS V13.01,2013-10-25 14:21:00,
2013-10-25 09:22:00,39.8,34.5,30.54,NNE,17,9.0,9.0,81,0.12,,---,0.12,VWS V13.01,2013-10-25 14:22:00,
2013-10-25 09:23:00,39.8,33.8,30.54,NNE,17,6.0,9.0,79,0.12,,---,0.13,VWS V13.01,2013-10-25 14:23:00,
2013-10-25 09:24:00,39.8,33.5,30.54,NNE,17,3.0,9.0,78,0.13,,---,0.13,VWS V13.01,2013-10-25 14:24:00,
2013-10-25 09:25:00,39.8,33.5,30.54,NNE,17,2.0,9.0,78,0.13,,---,0.13,VWS V13.01,2013-10-25 14:25:00,
2013-10-25 09:26:00,39.8,33.5,30.54,NNE,17,1.0,9.0,78,0.13,,---,0.13,VWS V13.01,2013-10-25 14:26:00,
2013-10-25 09:27:00,39.9,33.9,30.54,NNE,17,2.0,9.0,79,0.13,,---,0.13,VWS V13.01,2013-10-25 14:27:00,
2013-10-25 09:28:00,39.9,34.2,30.53,NNE,17,1.0,9.0,80,0.13,,---,0.13,VWS V13.01,2013-10-25 14:28:00,
2013-10-25 09:29:00,40.0,34.7,30.53,NNE,17,1.0,9.0,81,0.13,,---,0.13,VWS V13.01,2013-10-25 14:29:00,
2013-10-25 09:30:00,40.1,34.4,30.53,NNE,17,3.0,9.0,80,0.13,,---,0.13,VWS V13.01,2013-10-25 14:30:00,
2013-10-25 09:31:00,40.1,34.1,30.54,NNE,17,7.0,7.0,79,0.11,,---,0.13,VWS V13.01,2013-10-25 14:31:00,
2013-10-25 09:32:00,40.1,33.8,30.53,NNE,17,1.0,7.0,78,0.11,,---,0.14,VWS V13.01,2013-10-25 14:32:00,
2013-10-25 09:33:00,40.2,34.5,30.54,NNE,17,0.0,7.0,80,0.12,,---,0.14,VWS V13.01,2013-10-25 14:33:00,
2013-10-25 09:34:00,40.3,34.6,30.54,NNE,17,3.0,7.0,80,0.12,,---,0.14,VWS V13.01,2013-10-25 14:34:00,
2013-10-25 09:35:00,40.4,34.4,30.53,NNE,17,1.0,7.0,79,0.12,,---,0.14,VWS V13.01,2013-10-25 14:35:00,
2013-10-25 09:36:00,40.6,34.6,30.53,NNE,17,2.0,7.0,79,0.12,,---,0.14,VWS V13.01,2013-10-25 14:36:00,
2013-10-25 09:37:00,40.6,33.6,30.53,NNE,17,3.0,7.0,76,0.12,,---,0.14,VWS V13.01,2013-10-25 14:37:00,
2013-10-25 09:38:00,40.7,32.4,30.53,NNE,17,5.0,9.0,72,0.12,,---,0.14,VWS V13.01,2013-10-25 14:38:00,
2013-10-25 09:39:00,40.8,32.5,30.53,NNE,17,6.0,9.0,72,0.12,,---,0.14,VWS V13.01,2013-10-25 14:39:00,
2013-10-25 09:40:00,40.8,32.1,30.53,NNE,17,4.0,9.0,71,0.12,,---,0.14,VWS V13.01,2013-10-25 14:40:00,
2013-10-25 09:41:00,40.8,32.1,30.53,NNE,17,4.0,9.0,71,0.12,,---,0.14,VWS V13.01,2013-10-25 14:41:00,
2013-10-25 09:42:00,40.8,32.1,30.53,NNE,17,3.0,9.0,71,0.12,,---,0.14,VWS V13.01,2013-10-25 14:42:00,
2013-10-25 09:43:00,40.8,31.8,30.53,NNE,17,3.0,9.0,70,0.12,,---,0.14,VWS V13.01,2013-10-25 14:43:00,
2013-10-25 09:44:00,40.9,32.6,30.53,NNE,17,4.0,9.0,72,0.12,,---,0.14,VWS V13.01,2013-10-25 14:44:00,
2013-10-25 09:45:00,40.9,32.2,30.53,NNE,17,2.0,9.0,71,0.12,,---,0.14,VWS V13.01,2013-10-25 14:45:00,
2013-10-25 09:46:00,41.0,32.7,30.53,NNE,17,4.0,9.0,72,0.12,,---,0.14,VWS V13.01,2013-10-25 14:46:00,
2013-10-25 09:47:00,41.1,32.4,30.53,NNE,17,2.0,9.0,71,0.12,,---,0.14,VWS V13.01,2013-10-25 14:47:00,
2013-10-25 09:48:00,41.1,32.4,30.53,NNE,17,3.0,9.0,71,0.12,,---,0.14,VWS V13.01,2013-10-25 14:48:00,
2013-10-25 09:49:00,41.2,32.9,30.53,NNE,17,2.0,9.0,72,0.12,,---,0.15,VWS V13.01,2013-10-25 14:49:00,
2013-10-25 09:50:00,41.2,32.5,30.53,NNE,17,4.0,9.0,71,0.13,,---,0.15,VWS V13.01,2013-10-25 14:50:00,
2013-10-25 09:51:00,41.3,32.6,30.53,NNE,17,2.0,9.0,71,0.13,,---,0.15,VWS V13.01,2013-10-25 14:51:00,
2013-10-25 09:52:00,41.4,32.7,30.53,NNE,17,6.0,9.0,71,0.13,,---,0.15,VWS V13.01,2013-10-25 14:52:00,
2013-10-25 09:53:00,41.4,32.4,30.53,NNE,17,3.0,9.0,70,0.13,,---,0.15,VWS V13.01,2013-10-25 14:53:00,
2013-10-25 09:54:00,41.4,32.0,30.53,NNE,17,3.0,9.0,69,0.13,,---,0.15,VWS V13.01,2013-10-25 14:54:00,
2013-10-25 09:55:00,41.4,32.0,30.53,NNE,17,5.0,9.0,69,0.13,,---,0.15,VWS V13.01,2013-10-25 14:55:00,
2013-10-25 09:56:00,41.5,32.8,30.54,NNE,17,4.0,9.0,71,0.13,,---,0.15,VWS V13.01,2013-10-25 14:56:00,
2013-10-25 09:57:00,41.5,32.5,30.53,NNE,17,2.0,9.0,70,0.13,,---,0.15,VWS V13.01,2013-10-25 14:57:00,
2013-10-25 09:58:00,41.6,32.6,30.53,NNE,17,3.0,9.0,70,0.13,,---,0.15,VWS V13.01,2013-10-25 14:58:00,
2013-10-25 09:59:00,41.6,32.6,30.53,NNE,17,0.0,9.0,70,0.13,,---,0.15,VWS V13.01,2013-10-25 14:59:00,
2013-10-25 10:00:00,41.6,32.6,30.53,NNE,17,3.0,9.0,70,0.13,,---,0.15,VWS V13.01,2013-10-25 15:00:00,
2013-10-25 10:01:00,41.6,32.2,30.53,NNE,17,4.0,6.0,69,0.13,,---,0.15,VWS V13.01,2013-10-25 15:01:00,
2013-10-25 10:02:00,41.7,32.3,30.53,NNE,17,9.0,9.0,69,0.05,,---,0.15,VWS V13.01,2013-10-25 15:02:00,
2013-10-25 10:03:00,41.7,32.3,30.53,NNE,17,3.0,9.0,69,0.05,,---,0.15,VWS V13.01,2013-10-25 15:03:00,
2013-10-25 10:04:00,41.7,31.9,30.53,NNE,17,2.0,9.0,68,0.05,,---,0.15,VWS V13.01,2013-10-25 15:04:00,
2013-10-25 10:05:00,41.7,32.7,30.53,NNE,17,2.0,9.0,70,0.05,,---,0.15,VWS V13.01,2013-10-25 15:05:00,
2013-10-25 10:06:00,41.9,32.8,30.53,NNE,17,2.0,9.0,70,0.05,,---,0.16,VWS V13.01,2013-10-25 15:06:00,
2013-10-25 10:07:00,42.0,32.6,30.53,NNE,17,4.0,9.0,69,0.06,,---,0.16,VWS V13.01,2013-10-25 15:07:00,
2013-10-25 10:08:00,42.0,32.9,30.53,NNE,17,3.0,9.0,70,0.06,,---,0.16,VWS V13.01,2013-10-25 15:08:00,
2013-10-25 10:09:00,42.1,32.0,30.53,NNE,17,4.0,9.0,67,0.06,,---,0.16,VWS V13.01,2013-10-25 15:09:00,
2013-10-25 10:10:00,42.2,31.3,30.53,NNE,17,4.0,9.0,65,0.06,,---,0.16,VWS V13.01,2013-10-25 15:10:00,
2013-10-25 10:11:00,42.3,31.0,30.53,NNE,17,3.0,9.0,64,0.06,,---,0.16,VWS V13.01,2013-10-25 15:11:00,
2013-10-25 10:12:00,42.4,31.1,30.53,NNE,17,6.0,9.0,64,0.06,,---,0.16,VWS V13.01,2013-10-25 15:12:00,
2013-10-25 10:13:00,42.5,31.2,30.53,NNE,17,5.0,9.0,64,0.06,,---,0.16,VWS V13.01,2013-10-25 15:13:00,
2013-10-25 10:14:00,42.6,30.5,30.53,NNE,21,5.0,9.0,62,0.06,,---,0.16,VWS V13.01,2013-10-25 15:14:00,
2013-10-25 10:15:00,42.7,30.2,30.53,NNE,21,3.0,9.0,61,0.06,,---,0.16,VWS V13.01,2013-10-25 15:15:00,
2013-10-25 10:16:00,42.7,30.2,30.53,NNE,21,1.0,9.0,61,0.06,,---,0.16,VWS V13.01,2013-10-25 15:16:00,
2013-10-25 10:17:00,42.7,30.6,30.53,NNE,21,1.0,9.0,62,0.06,,---,0.16,VWS V13.01,2013-10-25 15:17:00,
2013-10-25 10:18:00,42.8,30.7,30.52,NNE,21,6.0,9.0,62,0.06,,---,0.16,VWS V13.01,2013-10-25 15:18:00,
2013-10-25 10:19:00,42.9,30.4,30.52,NNE,21,4.0,9.0,61,0.06,,---,0.16,VWS V13.01,2013-10-25 15:19:00,
2013-10-25 10:20:00,42.9,31.2,30.52,NNE,21,4.0,9.0,63,0.06,,---,0.16,VWS V13.01,2013-10-25 15:20:00,
2013-10-25 10:21:00,43.0,31.7,30.52,NNE,21,1.0,9.0,64,0.06,,---,0.16,VWS V13.01,2013-10-25 15:21:00,
2013-10-25 10:22:00,43.1,32.2,30.52,NNE,21,2.0,9.0,65,0.06,,---,0.16,VWS V13.01,2013-10-25 15:22:00,
2013-10-25 10:23:00,43.3,32.0,30.52,NNE,21,6.0,9.0,64,0.06,,---,0.16,VWS V13.01,2013-10-25 15:23:00,
2013-10-25 10:24:00,43.4,31.7,30.52,NNE,21,3.0,9.0,63,0.06,,---,0.16,VWS V13.01,2013-10-25 15:24:00,
2013-10-25 10:25:00,43.5,30.5,30.52,NNE,15,7.0,13.0,60,0.06,,---,0.16,VWS V13.01,2013-10-25 15:25:00,
2013-10-25 10:26:00,43.4,30.5,30.52,NNE,15,2.0,13.0,60,0.06,,---,0.16,VWS V13.01,2013-10-25 15:26:00,
2013-10-25 10:27:00,43.4,30.5,30.52,NNE,15,5.0,13.0,60,0.06,,---,0.16,VWS V13.01,2013-10-25 15:27:00,
2013-10-25 10:28:00,43.4,30.5,30.52,NNE,15,2.0,13.0,60,0.06,,---,0.16,VWS V13.01,2013-10-25 15:28:00,
2013-10-25 10:29:00,43.4,30.9,30.52,NNE,15,6.0,13.0,61,0.06,,---,0.16,VWS V13.01,2013-10-25 15:29:00,
2013-10-25 10:30:00,43.4,30.9,30.52,NNE,15,5.0,13.0,61,0.06,,---,0.16,VWS V13.01,2013-10-25 15:30:00,
2013-10-25 10:31:00,43.5,31.0,30.52,NNE,15,0.0,7.0,61,0.03,,---,0.16,VWS V13.01,2013-10-25 15:31:00,
2013-10-25 10:32:00,43.5,30.5,30.52,NNE,21,1.0,8.0,60,0.03,,---,0.16,VWS V13.01,2013-10-25 15:32:00,
2013-10-25 10:33:00,43.6,31.5,30.52,NNE,21,7.0,8.0,62,0.03,,---,0.16,VWS V13.01,2013-10-25 15:33:00,
2013-10-25 10:34:00,43.6,31.0,30.52,NNE,21,3.0,8.0,61,0.03,,---,0.16,VWS V13.01,2013-10-25 15:34:00,
2013-10-25 10:35:00,43.7,30.7,30.52,NNE,21,0.0,8.0,60,0.03,,---,0.16,VWS V13.01,2013-10-25 15:35:00,
2013-10-25 10:36:00,43.8,31.2,30.52,NNE,21,2.0,8.0,61,0.03,,---,0.16,VWS V13.01,2013-10-25 15:36:00,
2013-10-25 10:37:00,43.9,31.3,30.52,NNE,21,2.0,8.0,61,0.03,,---,0.16,VWS V13.01,2013-10-25 15:37:00,
2013-10-25 10:38:00,44.1,32.3,30.52,NNE,21,4.0,8.0,63,0.03,,---,0.16,VWS V13.01,2013-10-25 15:38:00,
2013-10-25 10:39:00,44.3,31.7,30.52,NNE,21,0.0,8.0,61,0.03,,---,0.16,VWS V13.01,2013-10-25 15:39:00,
2013-10-25 10:40:00,44.4,32.6,30.52,NNE,21,0.0,8.0,63,0.03,,---,0.17,VWS V13.01,2013-10-25 15:40:00,
2013-10-25 10:41:00,44.6,32.4,30.52,NNE,21,3.0,8.0,62,0.04,,---,0.17,VWS V13.01,2013-10-25 15:41:00,
2013-10-25 10:42:00,44.7,31.7,30.52,NNE,30,11.0,11.0,60,0.04,,---,0.17,VWS V13.01,2013-10-25 15:42:00,
2013-10-25 10:43:00,44.8,32.6,30.52,NE,41,2.0,11.0,62,0.04,,---,0.17,VWS V13.01,2013-10-25 15:43:00,
2013-10-25 10:44:00,44.9,33.1,30.52,NE,42,3.0,11.0,63,0.04,,---,0.17,VWS V13.01,2013-10-25 15:44:00,
2013-10-25 10:45:00,45.0,32.0,30.52,NE,41,4.0,11.0,60,0.04,,---,0.17,VWS V13.01,2013-10-25 15:45:00,
2013-10-25 10:46:00,45.0,31.1,30.52,NE,42,0.0,11.0,58,0.04,,---,0.17,VWS V13.01,2013-10-25 15:46:00,
2013-10-25 10:47:00,45.0,31.1,30.52,NE,40,6.0,11.0,58,0.04,,---,0.17,VWS V13.01,2013-10-25 15:47:00,
2013-10-25 10:48:00,45.0,31.1,30.52,NE,40,2.0,11.0,58,0.04,,---,0.17,VWS V13.01,2013-10-25 15:48:00,
2013-10-25 10:49:00,45.0,31.1,30.52,NE,40,3.0,11.0,58,0.04,,---,0.17,VWS V13.01,2013-10-25 15:49:00,
2013-10-25 10:50:00,45.0,31.5,30.52,NE,40,4.0,11.0,59,0.04,,---,0.17,VWS V13.01,2013-10-25 15:50:00,
2013-10-25 10:51:00,44.9,31.0,30.52,NE,40,1.0,11.0,58,0.04,,---,0.17,VWS V13.01,2013-10-25 15:51:00,
2013-10-25 10:52:00,45.0,32.0,30.52,NE,40,2.0,11.0,60,0.04,,---,0.17,VWS V13.01,2013-10-25 15:52:00,
2013-10-25 10:53:00,45.0,32.0,30.51,NE,42,4.0,11.0,60,0.04,,---,0.17,VWS V13.01,2013-10-25 15:53:00,
2013-10-25 10:54:00,45.0,31.5,30.51,NE,42,3.0,11.0,59,0.04,,---,0.17,VWS V13.01,2013-10-25 15:54:00,
2013-10-25 10:55:00,45.0,31.5,30.52,NE,42,0.0,11.0,59,0.04,,---,0.17,VWS V13.01,2013-10-25 15:55:00,
2013-10-25 10:56:00,45.0,32.4,30.51,NE,41,2.0,11.0,61,0.04,,---,0.17,VWS V13.01,2013-10-25 15:56:00,
2013-10-25 10:57:00,45.0,32.8,30.51,NE,42,2.0,11.0,62,0.04,,---,0.17,VWS V13.01,2013-10-25 15:57:00,
2013-10-25 10:58:00,45.2,32.2,30.51,NE,41,0.0,11.0,60,0.04,,---,0.17,VWS V13.01,2013-10-25 15:58:00,
2013-10-25 10:59:00,45.2,32.2,30.51,NE,42,0.0,11.0,60,0.04,,---,0.17,VWS V13.01,2013-10-25 15:59:00,
2013-10-25 11:00:00,45.3,32.2,30.51,NE,42,1.0,11.0,60,0.04,,---,0.17,VWS V13.01,2013-10-25 16:00:00,
2013-10-25 11:01:00,45.4,33.2,30.51,NE,41,0.0,2.0,62,0.02,,---,0.17,VWS V13.01,2013-10-25 16:01:00,
2013-10-25 11:02:00,45.5,32.8,30.51,NE,42,2.0,2.0,61,0.02,,---,0.17,VWS V13.01,2013-10-25 16:02:00,
2013-10-25 11:03:00,45.6,32.1,30.51,NE,41,4.0,7.0,59,0.02,,---,0.17,VWS V13.01,2013-10-25 16:03:00,
2013-10-25 11:04:00,45.6,31.7,30.51,NE,40,4.0,10.0,58,0.02,,---,0.17,VWS V13.01,2013-10-25 16:04:00,
2013-10-25 11:05:00,45.6,31.7,30.51,NE,38,4.0,10.0,58,0.02,,---,0.17,VWS V13.01,2013-10-25 16:05:00,
2013-10-25 11:06:00,45.5,31.2,30.51,NE,38,8.0,10.0,57,0.02,,---,0.17,VWS V13.01,2013-10-25 16:06:00,
2013-10-25 11:07:00,45.4,31.1,30.52,NE,37,7.0,10.0,57,0.02,,---,0.17,VWS V13.01,2013-10-25 16:07:00,
2013-10-25 11:08:00,45.4,30.6,30.52,NE,38,3.0,10.0,56,0.02,,---,0.17,VWS V13.01,2013-10-25 16:08:00,
2013-10-25 11:09:00,45.2,31.3,30.52,NE,38,4.0,10.0,58,0.02,,---,0.17,VWS V13.01,2013-10-25 16:09:00,
2013-10-25 11:10:00,45.2,31.3,30.51,NE,37,6.0,10.0,58,0.02,,---,0.17,VWS V13.01,2013-10-25 16:10:00,
2013-10-25 11:11:00,45.1,31.2,30.51,NE,36,6.0,11.0,58,0.02,,---,0.18,VWS V13.01,2013-10-25 16:11:00,
2013-10-25 11:12:00,45.1,31.6,30.51,NE,36,3.0,11.0,59,0.03,,---,0.18,VWS V13.01,2013-10-25 16:12:00,
2013-10-25 11:13:00,45.1,32.5,30.51,NE,36,6.0,11.0,61,0.03,,---,0.18,VWS V13.01,2013-10-25 16:13:00,
2013-10-25 11:14:00,45.1,31.6,30.51,NE,36,2.0,11.0,59,0.03,,---,0.18,VWS V13.01,2013-10-25 16:14:00,
2013-10-25 11:15:00,45.2,31.7,30.51,NE,36,2.0,11.0,59,0.03,,---,0.18,VWS V13.01,2013-10-25 16:15:00,
2013-10-25 11:16:00,45.2,31.7,30.51,NE,36,3.0,11.0,59,0.03,,---,0.18,VWS V13.01,2013-10-25 16:16:00,
2013-10-25 11:17:00,45.2,32.2,30.51,NE,36,5.0,11.0,60,0.03,,---,0.18,VWS V13.01,2013-10-25 16:17:00,
2013-10-25 11:18:00,45.3,31.8,30.51,NE,36,3.0,11.0,59,0.03,,---,0.18,VWS V13.01,2013-10-25 16:18:00,
2013-10-25 11:19:00,45.3,31.8,30.51,NE,36,4.0,11.0,59,0.03,,---,0.18,VWS V13.01,2013-10-25 16:19:00,
2013-10-25 11:20:00,45.4,32.3,30.51,NE,36,4.0,11.0,60,0.03,,---,0.18,VWS V13.01,2013-10-25 16:20:00,
2013-10-25 11:21:00,45.5,31.6,30.51,NE,36,0.0,11.0,58,0.03,,---,0.18,VWS V13.01,2013-10-25 16:21:00,
2013-10-25 11:22:00,45.5,31.6,30.51,NE,36,3.0,11.0,58,0.03,,---,0.18,VWS V13.01,2013-10-25 16:22:00,
2013-10-25 11:23:00,45.5,31.6,30.51,NE,36,5.0,11.0,58,0.03,,---,0.18,VWS V13.01,2013-10-25 16:23:00,
2013-10-25 11:24:00,45.7,33.4,30.51,NE,36,3.0,11.0,62,0.03,,---,0.18,VWS V13.01,2013-10-25 16:24:00,
2013-10-25 11:25:00,45.8,32.3,30.51,NE,36,3.0,11.0,59,0.03,,---,0.18,VWS V13.01,2013-10-25 16:25:00,
2013-10-25 11:26:00,45.9,32.0,30.51,NE,36,2.0,11.0,58,0.03,,---,0.18,VWS V13.01,2013-10-25 16:26:00,
2013-10-25 11:27:00,45.9,31.5,30.51,NE,36,3.0,11.0,57,0.03,,---,0.18,VWS V13.01,2013-10-25 16:27:00,
2013-10-25 11:28:00,45.9,31.5,30.51,NE,36,4.0,11.0,57,0.03,,---,0.18,VWS V13.01,2013-10-25 16:28:00,
2013-10-25 11:29:00,46.0,31.6,30.51,NE,36,7.0,11.0,57,0.03,,---,0.18,VWS V13.01,2013-10-25 16:29:00,
2013-10-25 11:30:00,46.0,32.1,30.51,NE,36,2.0,11.0,58,0.03,,---,0.18,VWS V13.01,2013-10-25 16:30:00,
2013-10-25 11:31:00,46.0,32.1,30.51,NE,36,2.0,5.0,58,0.02,,---,0.18,VWS V13.01,2013-10-25 16:31:00,
2013-10-25 11:32:00,46.0,31.6,30.51,NE,36,1.0,5.0,57,0.02,,---,0.18,VWS V13.01,2013-10-25 16:32:00,
2013-10-25 11:33:00,46.0,31.6,30.50,NE,36,3.0,5.0,57,0.02,,---,0.18,VWS V13.01,2013-10-25 16:33:00,
2013-10-25 11:34:00,46.0,31.6,30.50,NE,36,0.0,5.0,57,0.02,,---,0.18,VWS V13.01,2013-10-25 16:34:00,
2013-10-25 11:35:00,46.1,32.6,30.51,NE,36,5.0,5.0,59,0.02,,---,0.18,VWS V13.01,2013-10-25 16:35:00,
2013-10-25 11:36:00,46.3,31.5,30.50,NE,38,4.0,7.0,56,0.02,,---,0.18,VWS V13.01,2013-10-25 16:36:00,
2013-10-25 11:37:00,46.5,33.0,30.50,NE,38,5.0,7.0,59,0.02,,---,0.18,VWS V13.01,2013-10-25 16:37:00,
2013-10-25 11:38:00,46.5,31.7,30.50,NE,38,3.0,7.0,56,0.02,,---,0.18,VWS V13.01,2013-10-25 16:38:00,
2013-10-25 11:39:00,46.6,31.8,30.50,NE,38,2.0,7.0,56,0.02,,---,0.18,VWS V13.01,2013-10-25 16:39:00,
2013-10-25 11:40:00,46.6,31.3,30.50,NE,38,0.0,7.0,55,0.02,,---,0.18,VWS V13.01,2013-10-25 16:40:00,
2013-10-25 11:41:00,46.6,31.8,30.50,NE,38,0.0,7.0,56,0.02,,---,0.18,VWS V13.01,2013-10-25 16:41:00,
2013-10-25 11:42:00,46.7,32.3,30.50,NE,38,0.0,7.0,57,0.02,,---,0.18,VWS V13.01,2013-10-25 16:42:00,
2013-10-25 11:43:00,46.8,32.4,30.50,NE,38,0.0,7.0,57,0.02,,---,0.18,VWS V13.01,2013-10-25 16:43:00,
2013-10-25 11:44:00,46.9,32.9,30.50,NE,38,0.0,7.0,58,0.02,,---,0.18,VWS V13.01,2013-10-25 16:44:00,
2013-10-25 11:45:00,46.9,32.0,30.50,NE,38,0.0,7.0,56,0.02,,---,0.18,VWS V13.01,2013-10-25 16:45:00,
2013-10-25 11:46:00,47.1,33.5,30.50,NE,38,1.0,7.0,59,0.02,,---,0.18,VWS V13.01,2013-10-25 16:46:00,
2013-10-25 11:47:00,47.2,32.3,30.50,NE,38,2.0,7.0,56,0.02,,---,0.18,VWS V13.01,2013-10-25 16:47:00,
2013-10-25 11:48:00,47.3,32.0,30.50,NE,40,3.0,7.0,55,0.02,,---,0.18,VWS V13.01,2013-10-25 16:48:00,
2013-10-25 11:49:00,47.3,31.0,30.50,NE,40,1.0,7.0,53,0.02,,---,0.18,VWS V13.01,2013-10-25 16:49:00,
2013-10-25 11:50:00,47.3,32.0,30.50,NE,40,0.0,7.0,55,0.02,,---,0.18,VWS V13.01,2013-10-25 16:50:00,
2013-10-25 11:51:00,47.3,32.4,30.50,NE,40,4.0,7.0,56,0.02,,---,0.19,VWS V13.01,2013-10-25 16:51:00,
2013-10-25 11:52:00,47.2,32.3,30.50,NE,40,2.0,7.0,56,0.03,,---,0.19,VWS V13.01,2013-10-25 16:52:00,
2013-10-25 11:53:00,47.2,31.0,30.50,NE,40,4.0,7.0,53,0.03,,---,0.19,VWS V13.01,2013-10-25 16:53:00,
2013-10-25 11:54:00,47.2,30.5,30.50,NE,41,4.0,8.0,52,0.03,,---,0.19,VWS V13.01,2013-10-25 16:54:00,
2013-10-25 11:55:00,47.1,30.4,30.50,NE,41,1.0,8.0,52,0.03,,---,0.19,VWS V13.01,2013-10-25 16:55:00,
2013-10-25 11:56:00,47.0,30.3,30.50,NE,41,3.0,8.0,52,0.03,,---,0.19,VWS V13.01,2013-10-25 16:56:00,
2013-10-25 11:57:00,47.0,30.8,30.50,NE,41,0.0,8.0,53,0.03,,---,0.19,VWS V13.01,2013-10-25 16:57:00,
2013-10-25 11:58:00,47.0,31.2,30.50,NE,41,3.0,8.0,54,0.03,,---,0.19,VWS V13.01,2013-10-25 16:58:00,
2013-10-25 11:59:00,47.0,30.8,30.49,NE,41,3.0,8.0,53,0.03,,---,0.19,VWS V13.01,2013-10-25 16:59:00,
2013-10-25 12:00:00,47.0,30.3,30.49,NE,42,5.0,9.0,52,0.03,,---,0.19,VWS V13.01,2013-10-25 17:00:00,
2013-10-25 12:01:00,47.0,31.2,30.49,NE,42,3.0,6.0,54,0.02,,---,0.19,VWS V13.01,2013-10-25 17:01:00,
2013-10-25 12:02:00,47.0,30.8,30.49,NE,42,2.0,6.0,53,0.02,,---,0.19,VWS V13.01,2013-10-25 17:02:00,
2013-10-25 12:03:00,47.1,31.8,30.49,NE,42,1.0,6.0,55,0.02,,---,0.19,VWS V13.01,2013-10-25 17:03:00,
2013-10-25 12:04:00,47.1,31.3,30.49,NE,41,0.0,6.0,54,0.02,,---,0.19,VWS V13.01,2013-10-25 17:04:00,
2013-10-25 12:05:00,47.2,31.9,30.49,NE,41,5.0,6.0,55,0.02,,---,0.19,VWS V13.01,2013-10-25 17:05:00,
2013-10-25 12:06:00,47.1,30.9,30.49,NE,41,1.0,6.0,53,0.02,,---,0.19,VWS V13.01,2013-10-25 17:06:00,
2013-10-25 12:07:00,47.2,31.4,30.49,NE,41,2.0,6.0,54,0.02,,---,0.19,VWS V13.01,2013-10-25 17:07:00,
2013-10-25 12:08:00,47.3,31.5,30.49,NE,42,2.0,6.0,54,0.02,,---,0.19,VWS V13.01,2013-10-25 17:08:00,
2013-10-25 12:09:00,47.4,32.5,30.49,NE,42,3.0,7.0,56,0.02,,---,0.19,VWS V13.01,2013-10-25 17:09:00,
2013-10-25 12:10:00,47.5,31.2,30.49,NE,41,3.0,7.0,53,0.02,,---,0.19,VWS V13.01,2013-10-25 17:10:00,
2013-10-25 12:11:00,47.5,30.8,30.49,NE,42,7.0,7.0,52,0.02,,---,0.19,VWS V13.01,2013-10-25 17:11:00,
2013-10-25 12:12:00,47.4,30.7,30.49,NE,41,2.0,7.0,52,0.02,,---,0.20,VWS V13.01,2013-10-25 17:12:00,
2013-10-25 12:13:00,47.4,30.7,30.49,NE,42,0.0,7.0,52,0.03,,---,0.20,VWS V13.01,2013-10-25 17:13:00,
2013-10-25 12:14:00,47.5,31.2,30.49,NE,42,0.0,7.0,53,0.03,,---,0.20,VWS V13.01,2013-10-25 17:14:00,
2013-10-25 12:15:00,47.5,30.8,30.48,NE,42,0.0,7.0,52,0.03,,---,0.20,VWS V13.01,2013-10-25 17:15:00,
2013-10-25 12:16:00,47.6,31.3,30.48,NE,42,3.0,7.0,53,0.03,,---,0.20,VWS V13.01,2013-10-25 17:16:00,
2013-10-25 12:17:00,47.7,31.4,30.48,NE,41,6.0,7.0,53,0.03,,---,0.20,VWS V13.01,2013-10-25 17:17:00,
2013-10-25 12:18:00,47.7,31.4,30.48,NE,42,3.0,7.0,53,0.03,,---,0.20,VWS V13.01,2013-10-25 17:18:00,
2013-10-25 12:19:00,47.7,31.4,30.48,NE,42,4.0,7.0,53,0.03,,---,0.20,VWS V13.01,2013-10-25 17:19:00,
2013-10-25 12:20:00,47.7,31.4,30.48,NE,42,3.0,7.0,53,0.03,,---,0.20,VWS V13.01,2013-10-25 17:20:00,
2013-10-25 12:21:00,47.7,31.0,30.48,NE,42,3.0,7.0,52,0.03,,---,0.20,VWS V13.01,2013-10-25 17:21:00,
2013-10-25 12:22:00,47.6,30.4,30.48,NE,42,0.0,7.0,51,0.03,,---,0.20,VWS V13.01,2013-10-25 17:22:00,
2013-10-25 12:23:00,47.6,31.3,30.48,NE,42,2.0,7.0,53,0.03,,---,0.20,VWS V13.01,2013-10-25 17:23:00,
2013-10-25 12:24:00,47.5,30.8,30.48,NE,42,1.0,7.0,52,0.03,,---,0.20,VWS V13.01,2013-10-25 17:24:00,
2013-10-25 12:25:00,47.5,30.8,30.48,NE,42,0.0,7.0,52,0.03,,---,0.20,VWS V13.01,2013-10-25 17:25:00,
2013-10-25 12:26:00,47.5,31.7,30.48,NE,42,0.0,7.0,54,0.03,,---,0.20,VWS V13.01,2013-10-25 17:26:00,
2013-10-25 12:27:00,47.6,32.2,30.48,NE,42,0.0,7.0,55,0.03,,---,0.20,VWS V13.01,2013-10-25 17:27:00,
2013-10-25 12:28:00,47.7,31.9,30.48,NE,42,6.0,7.0,54,0.03,,---,0.20,VWS V13.01,2013-10-25 17:28:00,
2013-10-25 12:29:00,47.7,31.9,30.48,NE,42,0.0,7.0,54,0.03,,---,0.20,VWS V13.01,2013-10-25 17:29:00,
2013-10-25 12:30:00,47.8,30.1,30.48,NE,42,0.0,7.0,50,0.03,,---,0.20,VWS V13.01,2013-10-25 17:30:00,
2013-10-25 12:31:00,47.8,30.6,30.48,NE,42,0.0,0.0,51,0.03,,---,0.20,VWS V13.01,2013-10-25 17:31:00,
2013-10-25 12:32:00,47.8,31.5,30.48,NE,42,1.0,3.0,53,0.02,,---,0.20,VWS V13.01,2013-10-25 17:32:00,
2013-10-25 12:33:00,47.8,31.5,30.48,NE,42,0.0,3.0,53,0.02,,---,0.20,VWS V13.01,2013-10-25 17:33:00,
2013-10-25 12:34:00,48.0,30.8,30.47,NE,41,4.0,9.0,51,0.02,,---,0.20,VWS V13.01,2013-10-25 17:34:00,
2013-10-25 12:35:00,48.0,30.8,30.48,NE,42,5.0,9.0,51,0.02,,---,0.20,VWS V13.01,2013-10-25 17:35:00,
2013-10-25 12:36:00,48.1,30.4,30.48,NE,42,0.0,9.0,50,0.02,,---,0.20,VWS V13.01,2013-10-25 17:36:00,
2013-10-25 12:37:00,48.2,30.9,30.48,NE,42,3.0,9.0,51,0.02,,---,0.20,VWS V13.01,2013-10-25 17:37:00,
2013-10-25 12:38:00,48.2,30.5,30.47,NE,41,5.0,9.0,50,0.02,,---,0.20,VWS V13.01,2013-10-25 17:38:00,
2013-10-25 12:39:00,48.2,30.5,30.48,NE,42,4.0,9.0,50,0.02,,---,0.20,VWS V13.01,2013-10-25 17:39:00,
2013-10-25 12:40:00,48.2,30.9,30.47,NE,41,3.0,9.0,51,0.02,,---,0.20,VWS V13.01,2013-10-25 17:40:00,
2013-10-25 12:41:00,48.2,30.9,30.47,NE,41,6.0,9.0,51,0.02,,---,0.20,VWS V13.01,2013-10-25 17:41:00,
2013-10-25 12:42:00,48.1,30.4,30.48,NE,42,3.0,9.0,50,0.02,,---,0.20,VWS V13.01,2013-10-25 17:42:00,
2013-10-25 12:43:00,48.1,30.4,30.47,NE,42,3.0,9.0,50,0.02,,---,0.20,VWS V13.01,2013-10-25 17:43:00,
2013-10-25 12:44:00,48.1,30.4,30.47,NE,42,0.0,9.0,50,0.02,,---,0.20,VWS V13.01,2013-10-25 17:44:00,
2013-10-25 12:45:00,48.1,31.3,30.47,NE,41,0.0,9.0,52,0.02,,---,0.20,VWS V13.01,2013-10-25 17:45:00,
2013-10-25 12:46:00,48.1,30.8,30.47,NE,41,0.0,9.0,51,0.02,,---,0.21,VWS V13.01,2013-10-25 17:46:00,
2013-10-25 12:47:00,48.2,31.9,30.47,NE,42,1.0,9.0,53,0.03,,---,0.21,VWS V13.01,2013-10-25 17:47:00,
2013-10-25 12:48:00,48.3,32.0,30.47,NE,41,0.0,9.0,53,0.03,,---,0.21,VWS V13.01,2013-10-25 17:48:00,
2013-10-25 12:49:00,48.5,33.1,30.47,NE,41,0.0,9.0,55,0.03,,---,0.21,VWS V13.01,2013-10-25 17:49:00,
2013-10-25 12:50:00,48.7,32.3,30.47,NE,42,1.0,9.0,53,0.03,,---,0.21,VWS V13.01,2013-10-25 17:50:00,
2013-10-25 12:51:00,48.8,31.0,30.47,NE,42,1.0,9.0,50,0.03,,---,0.21,VWS V13.01,2013-10-25 17:51:00,
2013-10-25 12:52:00,48.9,30.6,30.47,NE,42,2.0,9.0,49,0.03,,---,0.21,VWS V13.01,2013-10-25 17:52:00,
2013-10-25 12:53:00,49.0,31.2,30.47,NE,42,1.0,9.0,50,0.03,,---,0.21,VWS V13.01,2013-10-25 17:53:00,
2013-10-25 12:54:00,49.0,31.2,30.47,NE,42,6.0,9.0,50,0.03,,---,0.21,VWS V13.01,2013-10-25 17:54:00,
2013-10-25 12:55:00,49.0,31.2,30.47,NE,42,4.0,9.0,50,0.03,,---,0.21,VWS V13.01,2013-10-25 17:55:00,
2013-10-25 12:56:00,49.1,31.3,30.47,NE,42,2.0,9.0,50,0.03,,---,0.21,VWS V13.01,2013-10-25 17:56:00,
2013-10-25 12:57:00,49.1,31.3,30.47,NE,42,3.0,9.0,50,0.03,,---,0.21,VWS V13.01,2013-10-25 17:57:00,
2013-10-25 12:58:00,49.0,31.2,30.47,NE,42,4.0,9.0,50,0.03,,---,0.21,VWS V13.01,2013-10-25 17:58:00,
2013-10-25 12:59:00,49.0,31.2,30.47,NE,41,2.0,9.0,50,0.03,,---,0.21,VWS V13.01,2013-10-25 17:59:00,
2013-10-25 13:00:00,49.0,32.2,30.47,NE,42,1.0,9.0,52,0.03,,---,0.21,VWS V13.01,2013-10-25 18:00:00,
2013-10-25 13:01:00,49.0,30.7,30.47,NE,42,0.0,1.0,49,0.02,,---,0.21,VWS V13.01,2013-10-25 18:01:00,
2013-10-25 13:02:00,49.1,31.3,30.46,NE,42,6.0,6.0,50,0.02,,---,0.21,VWS V13.01,2013-10-25 18:02:00,
2013-10-25 13:03:00,49.2,31.9,30.47,NE,44,3.0,8.0,51,0.02,,---,0.21,VWS V13.01,2013-10-25 18:03:00,
2013-10-25 13:04:00,49.2,30.4,30.47,NE,44,2.0,8.0,48,0.02,,---,0.21,VWS V13.01,2013-10-25 18:04:00,
2013-10-25 13:05:00,49.1,30.3,30.47,NE,44,0.0,8.0,48,0.02,,---,0.21,VWS V13.01,2013-10-25 18:05:00,
2013-10-25 13:06:00,49.0,31.2,30.47,NE,44,0.0,8.0,50,0.02,,---,0.21,VWS V13.01,2013-10-25 18:06:00,
2013-10-25 13:07:00,49.0,30.7,30.46,NE,44,0.0,8.0,49,0.02,,---,0.21,VWS V13.01,2013-10-25 18:07:00,
2013-10-25 13:08:00,48.9,30.6,30.46,NE,44,0.0,8.0,49,0.02,,---,0.21,VWS V13.01,2013-10-25 18:08:00,
2013-10-25 13:09:00,48.9,30.6,30.46,NE,44,0.0,8.0,49,0.02,,---,0.21,VWS V13.01,2013-10-25 18:09:00,
2013-10-25 13:10:00,48.8,31.0,30.46,NE,44,0.0,8.0,50,0.02,,---,0.21,VWS V13.01,2013-10-25 18:10:00,
2013-10-25 13:11:00,48.8,31.5,30.46,NE,44,0.0,8.0,51,0.02,,---,0.21,VWS V13.01,2013-10-25 18:11:00,
2013-10-25 13:12:00,48.8,31.5,30.46,NE,44,0.0,8.0,51,0.02,,---,0.21,VWS V13.01,2013-10-25 18:12:00,
2013-10-25 13:13:00,48.9,31.6,30.46,NE,44,3.0,8.0,51,0.02,,---,0.21,VWS V13.01,2013-10-25 18:13:00,
2013-10-25 13:14:00,48.9,31.6,30.45,NE,44,0.0,8.0,51,0.02,,---,0.21,VWS V13.01,2013-10-25 18:14:00,
2013-10-25 13:15:00,49.0,31.2,30.45,NE,44,1.0,8.0,50,0.02,,---,0.21,VWS V13.01,2013-10-25 18:15:00,
2013-10-25 13:16:00,49.1,31.3,30.45,NE,44,3.0,8.0,50,0.03,,---,0.22,VWS V13.01,2013-10-25 18:16:00,
2013-10-25 13:17:00,49.1,30.3,30.45,NE,44,0.0,8.0,48,0.03,,---,0.22,VWS V13.01,2013-10-25 18:17:00,
2013-10-25 13:18:00,49.1,30.8,30.45,NE,44,3.0,8.0,49,0.03,,---,0.22,VWS V13.01,2013-10-25 18:18:00,
2013-10-25 13:19:00,49.1,30.8,30.45,NE,44,4.0,8.0,49,0.03,,---,0.22,VWS V13.01,2013-10-25 18:19:00,
2013-10-25 13:20:00,49.0,31.2,30.45,NE,44,4.0,8.0,50,0.03,,---,0.22,VWS V13.01,2013-10-25 18:20:00,
2013-10-25 13:21:00,49.0,30.7,30.45,NE,44,3.0,8.0,49,0.03,,---,0.22,VWS V13.01,2013-10-25 18:21:00,
2013-10-25 13:22:00,49.0,31.2,30.45,NE,44,0.0,8.0,50,0.03,,---,0.22,VWS V13.01,2013-10-25 18:22:00,
2013-10-25 13:23:00,49.0,31.2,30.45,NE,44,0.0,8.0,50,0.03,,---,0.22,VWS V13.01,2013-10-25 18:23:00,
2013-10-25 13:24:00,49.0,31.2,30.45,NE,44,5.0,8.0,50,0.03,,---,0.22,VWS V13.01,2013-10-25 18:24:00,
2013-10-25 13:25:00,49.0,30.2,30.45,NE,44,4.0,8.0,48,0.03,,---,0.22,VWS V13.01,2013-10-25 18:25:00,
2013-10-25 13:26:00,48.9,30.1,30.45,NE,44,4.0,8.0,48,0.03,,---,0.22,VWS V13.01,2013-10-25 18:26:00,
2013-10-25 13:27:00,48.9,29.6,30.45,NE,44,2.0,8.0,47,0.03,,---,0.22,VWS V13.01,2013-10-25 18:27:00,
2013-10-25 13:28:00,48.9,30.6,30.45,NE,44,3.0,8.0,49,0.03,,---,0.22,VWS V13.01,2013-10-25 18:28:00,
2013-10-25 13:29:00,48.8,30.0,30.45,NE,44,0.0,8.0,48,0.03,,---,0.22,VWS V13.01,2013-10-25 18:29:00,
2013-10-25 13:30:00,48.8,30.5,30.45,NE,44,3.0,8.0,49,0.03,,---,0.22,VWS V13.01,2013-10-25 18:30:00,
2013-10-25 13:31:00,48.9,30.6,30.45,NE,44,2.0,4.0,49,0.03,,---,0.22,VWS V13.01,2013-10-25 18:31:00,
2013-10-25 13:32:00,49.0,30.7,30.45,NE,44,0.0,4.0,49,0.02,,---,0.22,VWS V13.01,2013-10-25 18:32:00,
2013-10-25 13:33:00,49.1,30.8,30.45,NE,44,3.0,4.0,49,0.02,,---,0.22,VWS V13.01,2013-10-25 18:33:00,
2013-10-25 13:34:00,49.2,30.4,30.45,NE,44,2.0,4.0,48,0.02,,---,0.22,VWS V13.01,2013-10-25 18:34:00,
2013-10-25 13:35:00,49.2,30.4,30.45,NE,44,0.0,4.0,48,0.02,,---,0.22,VWS V13.01,2013-10-25 18:35:00,
2013-10-25 13:36:00,49.2,30.9,30.45,NE,44,0.0,4.0,49,0.02,,---,0.22,VWS V13.01,2013-10-25 18:36:00,
2013-10-25 13:37:00,49.2,30.9,30.45,NE,44,2.0,4.0,49,0.02,,---,0.22,VWS V13.01,2013-10-25 18:37:00,
2013-10-25 13:38:00,49.3,30.5,30.45,NE,44,0.0,4.0,48,0.02,,---,0.22,VWS V13.01,2013-10-25 18:38:00,
2013-10-25 13:39:00,49.4,30.5,30.45,NE,44,0.0,4.0,48,0.02,,---,0.22,VWS V13.01,2013-10-25 18:39:00,
2013-10-25 13:40:00,49.4,31.1,30.45,NE,44,4.0,4.0,49,0.02,,---,0.22,VWS V13.01,2013-10-25 18:40:00,
2013-10-25 13:41:00,49.5,30.6,30.45,NE,44,2.0,6.0,48,0.02,,---,0.22,VWS V13.01,2013-10-25 18:41:00,
2013-10-25 13:42:00,49.5,31.1,30.45,NE,44,2.0,6.0,49,0.02,,---,0.22,VWS V13.01,2013-10-25 18:42:00,
2013-10-25 13:43:00,49.6,30.7,30.45,NE,44,3.0,6.0,48,0.02,,---,0.22,VWS V13.01,2013-10-25 18:43:00,
2013-10-25 13:44:00,49.5,29.6,30.44,NE,44,3.0,6.0,46,0.02,,---,0.22,VWS V13.01,2013-10-25 18:44:00,
2013-10-25 13:45:00,49.5,29.6,30.44,NE,44,0.0,6.0,46,0.02,,---,0.22,VWS V13.01,2013-10-25 18:45:00,
2013-10-25 13:46:00,49.4,31.1,30.44,NE,44,0.0,6.0,49,0.02,,---,0.22,VWS V13.01,2013-10-25 18:46:00,
2013-10-25 13:47:00,49.4,30.5,30.45,NE,44,0.0,6.0,48,0.02,,---,0.22,VWS V13.01,2013-10-25 18:47:00,
2013-10-25 13:48:00,49.5,31.6,30.44,NE,44,4.0,6.0,50,0.02,,---,0.22,VWS V13.01,2013-10-25 18:48:00,
2013-10-25 13:49:00,49.5,31.1,30.45,NE,44,0.0,6.0,49,0.02,,---,0.22,VWS V13.01,2013-10-25 18:49:00,
2013-10-25 13:50:00,49.5,30.1,30.45,NE,44,3.0,6.0,47,0.02,,---,0.22,VWS V13.01,2013-10-25 18:50:00,
2013-10-25 13:51:00,49.5,30.1,30.44,NE,44,4.0,6.0,47,0.02,,---,0.22,VWS V13.01,2013-10-25 18:51:00,
2013-10-25 13:52:00,49.5,30.1,30.44,NE,44,0.0,7.0,47,0.02,,---,0.22,VWS V13.01,2013-10-25 18:52:00,
2013-10-25 13:53:00,49.6,31.2,30.44,NE,44,3.0,7.0,49,0.02,,---,0.22,VWS V13.01,2013-10-25 18:53:00,
2013-10-25 13:54:00,49.6,31.2,30.44,NE,44,2.0,7.0,49,0.02,,---,0.22,VWS V13.01,2013-10-25 18:54:00,
2013-10-25 13:55:00,49.6,30.2,30.44,NE,44,0.0,7.0,47,0.02,,---,0.22,VWS V13.01,2013-10-25 18:55:00,
2013-10-25 13:56:00,49.6,30.2,30.44,NE,44,3.0,7.0,47,0.02,,---,0.22,VWS V13.01,2013-10-25 18:56:00,
2013-10-25 13:57:00,49.6,30.7,30.44,NE,44,4.0,7.0,48,0.03,,---,0.23,VWS V13.01,2013-10-25 18:57:00,
2013-10-25 13:58:00,49.6,30.2,30.44,NE,44,4.0,7.0,47,0.03,,---,0.23,VWS V13.01,2013-10-25 18:58:00,
2013-10-25 13:59:00,49.6,30.2,30.44,NE,44,0.0,7.0,47,0.03,,---,0.23,VWS V13.01,2013-10-25 18:59:00,
2013-10-25 14:00:00,49.7,30.8,30.44,NE,44,3.0,7.0,48,0.03,,---,0.23,VWS V13.01,2013-10-25 19:00:00,
2013-10-25 14:01:00,49.8,30.9,30.44,NE,44,0.0,3.0,48,0.03,,---,0.23,VWS V13.01,2013-10-25 19:01:00,
2013-10-25 14:02:00,49.9,30.5,30.44,NE,44,4.0,4.0,47,0.02,,---,0.23,VWS V13.01,2013-10-25 19:02:00,
2013-10-25 14:03:00,49.8,30.4,30.44,NE,44,0.0,4.0,47,0.02,,---,0.23,VWS V13.01,2013-10-25 19:03:00,
2013-10-25 14:04:00,49.9,31.5,30.44,NE,44,0.0,4.0,49,0.02,,---,0.23,VWS V13.01,2013-10-25 19:04:00,
2013-10-25 14:05:00,49.9,31.0,30.44,NE,44,1.0,4.0,48,0.02,,---,0.23,VWS V13.01,2013-10-25 19:05:00,
2013-10-25 14:06:00,50.0,30.6,30.43,NE,44,0.0,4.0,47,0.02,,---,0.23,VWS V13.01,2013-10-25 19:06:00,
2013-10-25 14:07:00,49.9,30.5,30.44,NE,44,0.0,6.0,47,0.02,,---,0.23,VWS V13.01,2013-10-25 19:07:00,
2013-10-25 14:08:00,50.0,30.6,30.44,NE,44,3.0,6.0,47,0.02,,---,0.23,VWS V13.01,2013-10-25 19:08:00,
2013-10-25 14:09:00,50.0,30.6,30.44,NE,44,1.0,6.0,47,0.02,,---,0.23,VWS V13.01,2013-10-25 19:09:00,
2013-10-25 14:10:00,50.0,31.1,30.44,NE,44,0.0,6.0,48,0.02,,---,0.23,VWS V13.01,2013-10-25 19:10:00,
2013-10-25 14:11:00,50.0,31.6,30.44,NE,44,3.0,6.0,49,0.02,,---,0.23,VWS V13.01,2013-10-25 19:11:00,
2013-10-25 14:12:00,50.0,30.0,30.44,NE,44,4.0,6.0,46,0.02,,---,0.23,VWS V13.01,2013-10-25 19:12:00,
2013-10-25 14:13:00,50.1,30.1,30.44,NE,44,2.0,6.0,46,0.02,,---,0.23,VWS V13.01,2013-10-25 19:13:00,
2013-10-25 14:14:00,50.1,30.7,30.44,NE,44,2.0,6.0,47,0.02,,---,0.23,VWS V13.01,2013-10-25 19:14:00,
2013-10-25 14:15:00,50.1,30.7,30.44,NE,44,0.0,6.0,47,0.02,,---,0.23,VWS V13.01,2013-10-25 19:15:00,
2013-10-25 14:16:00,50.1,30.7,30.44,NE,44,2.0,6.0,47,0.02,,---,0.23,VWS V13.01,2013-10-25 19:16:00,
2013-10-25 14:17:00,50.1,30.7,30.44,NE,44,0.0,6.0,47,0.02,,---,0.23,VWS V13.01,2013-10-25 19:17:00,
2013-10-25 14:18:00,50.2,30.8,30.43,NE,44,2.0,6.0,47,0.02,,---,0.23,VWS V13.01,2013-10-25 19:18:00,
2013-10-25 14:19:00,50.1,30.1,30.44,NE,44,4.0,6.0,46,0.02,,---,0.23,VWS V13.01,2013-10-25 19:19:00,
2013-10-25 14:20:00,50.1,30.7,30.43,NE,44,0.0,6.0,47,0.02,,---,0.23,VWS V13.01,2013-10-25 19:20:00,
2013-10-25 14:21:00,50.1,30.7,30.43,NE,44,0.0,6.0,47,0.02,,---,0.23,VWS V13.01,2013-10-25 19:21:00,
2013-10-25 14:22:00,50.0,30.6,30.43,NE,44,6.0,7.0,47,0.02,,---,0.23,VWS V13.01,2013-10-25 19:22:00,
2013-10-25 14:23:00,50.0,30.6,30.43,NE,44,1.0,7.0,47,0.02,,---,0.23,VWS V13.01,2013-10-25 19:23:00,
2013-10-25 14:24:00,49.9,30.0,30.44,NE,44,1.0,7.0,46,0.02,,---,0.23,VWS V13.01,2013-10-25 19:24:00,
2013-10-25 14:25:00,49.8,30.9,30.43,NE,44,2.0,7.0,48,0.02,,---,0.23,VWS V13.01,2013-10-25 19:25:00,
2013-10-25 14:26:00,49.8,30.9,30.43,NE,44,3.0,7.0,48,0.02,,---,0.23,VWS V13.01,2013-10-25 19:26:00,
2013-10-25 14:27:00,49.9,31.0,30.43,NE,44,0.0,7.0,48,0.02,,---,0.23,VWS V13.01,2013-10-25 19:27:00,
2013-10-25 14:28:00,49.9,30.5,30.43,NE,44,0.0,7.0,47,0.02,,---,0.23,VWS V13.01,2013-10-25 19:28:00,
2013-10-25 14:29:00,49.9,30.5,30.43,NE,44,0.0,7.0,47,0.02,,---,0.23,VWS V13.01,2013-10-25 19:29:00,
2013-10-25 14:30:00,49.9,31.0,30.43,NE,44,1.0,7.0,48,0.02,,---,0.23,VWS V13.01,2013-10-25 19:30:00,
2013-10-25 14:31:00,49.9,31.5,30.43,NE,44,1.0,4.0,49,0.02,,---,0.23,VWS V13.01,2013-10-25 19:31:00,
2013-10-25 14:32:00,49.9,32.5,30.43,NE,44,1.0,4.0,51,0.01,,---,0.23,VWS V13.01,2013-10-25 19:32:00,
2013-10-25 14:33:00,50.0,31.6,30.43,NE,44,3.0,5.0,49,0.01,,---,0.23,VWS V13.01,2013-10-25 19:33:00,
2013-10-25 14:34:00,50.1,30.7,30.43,NE,44,3.0,5.0,47,0.01,,---,0.23,VWS V13.01,2013-10-25 19:34:00,
2013-10-25 14:35:00,50.1,31.2,30.43,NE,44,1.0,5.0,48,0.02,,---,0.24,VWS V13.01,2013-10-25 19:35:00,
2013-10-25 14:36:00,50.2,31.3,30.43,NE,44,0.0,5.0,48,0.02,,---,0.24,VWS V13.01,2013-10-25 19:36:00,
2013-10-25 14:37:00,50.3,31.4,30.43,NE,44,3.0,5.0,48,0.02,,---,0.24,VWS V13.01,2013-10-25 19:37:00,
2013-10-25 14:38:00,50.3,31.4,30.43,NE,44,0.0,5.0,48,0.02,,---,0.24,VWS V13.01,2013-10-25 19:38:00,
2013-10-25 14:39:00,50.4,31.0,30.43,NE,44,2.0,5.0,47,0.02,,---,0.24,VWS V13.01,2013-10-25 19:39:00,
2013-10-25 14:40:00,50.4,31.0,30.43,NE,44,3.0,5.0,47,0.02,,---,0.24,VWS V13.01,2013-10-25 19:40:00,
2013-10-25 14:41:00,50.5,30.5,30.43,NE,44,1.0,5.0,46,0.02,,---,0.24,VWS V13.01,2013-10-25 19:41:00,
2013-10-25 14:42:00,50.5,30.5,30.43,NE,44,0.0,5.0,46,0.02,,---,0.24,VWS V13.01,2013-10-25 19:42:00,
2013-10-25 14:43:00,50.5,31.0,30.43,NE,44,3.0,5.0,47,0.02,,---,0.24,VWS V13.01,2013-10-25 19:43:00,
2013-10-25 14:44:00,50.5,30.5,30.43,NE,44,0.0,5.0,46,0.02,,---,0.24,VWS V13.01,2013-10-25 19:44:00,
2013-10-25 14:45:00,50.5,30.0,30.43,NE,44,0.0,5.0,45,0.02,,---,0.24,VWS V13.01,2013-10-25 19:45:00,
2013-10-25 14:46:00,50.4,29.9,30.43,NE,44,2.0,5.0,45,0.02,,---,0.24,VWS V13.01,2013-10-25 19:46:00,
2013-10-25 14:47:00,50.4,29.9,30.43,NE,44,0.0,5.0,45,0.02,,---,0.24,VWS V13.01,2013-10-25 19:47:00,
2013-10-25 14:48:00,50.3,29.8,30.43,NE,44,0.0,5.0,45,0.02,,---,0.24,VWS V13.01,2013-10-25 19:48:00,
2013-10-25 14:49:00,50.3,30.3,30.43,NE,44,0.0,5.0,46,0.02,,---,0.24,VWS V13.01,2013-10-25 19:49:00,
2013-10-25 14:50:00,50.3,30.3,30.43,NE,44,0.0,5.0,46,0.02,,---,0.24,VWS V13.01,2013-10-25 19:50:00,
2013-10-25 14:51:00,50.4,31.0,30.43,NE,44,1.0,5.0,47,0.02,,---,0.24,VWS V13.01,2013-10-25 19:51:00,
2013-10-25 14:52:00,50.4,31.0,30.43,NE,44,1.0,5.0,47,0.02,,---,0.24,VWS V13.01,2013-10-25 19:52:00,
2013-10-25 14:53:00,50.5,31.0,30.43,NE,44,0.0,5.0,47,0.02,,---,0.24,VWS V13.01,2013-10-25 19:53:00,
2013-10-25 14:54:00,50.6,30.6,30.43,NE,44,0.0,5.0,46,0.02,,---,0.24,VWS V13.01,2013-10-25 19:54:00,
2013-10-25 14:55:00,50.6,31.1,30.43,NE,44,0.0,5.0,47,0.02,,---,0.24,VWS V13.01,2013-10-25 19:55:00,
2013-10-25 14:56:00,50.7,30.7,30.43,NE,44,0.0,5.0,46,0.02,,---,0.24,VWS V13.01,2013-10-25 19:56:00,
2013-10-25 14:57:00,50.8,31.3,30.43,NE,44,0.0,5.0,47,0.02,,---,0.24,VWS V13.01,2013-10-25 19:57:00,
2013-10-25 14:58:00,50.9,32.4,30.43,NE,44,0.0,5.0,49,0.02,,---,0.24,VWS V13.01,2013-10-25 19:58:00,
2013-10-25 14:59:00,50.9,30.9,30.43,NE,44,0.0,5.0,46,0.02,,---,0.24,VWS V13.01,2013-10-25 19:59:00,
2013-10-25 15:00:00,50.9,30.3,30.43,NE,44,0.0,5.0,45,0.02,,---,0.24,VWS V13.01,2013-10-25 20:00:00,
2013-10-25 15:01:00,50.9,31.4,30.43,NE,44,0.0,0.0,47,0.02,,---,0.24,VWS V13.01,2013-10-25 20:01:00,
2013-10-25 15:02:00,51.0,31.0,30.43,NE,44,0.0,0.0,46,0.01,,---,0.24,VWS V13.01,2013-10-25 20:02:00,
2013-10-25 15:03:00,51.0,31.0,30.43,NE,44,0.0,0.0,46,0.01,,---,0.24,VWS V13.01,2013-10-25 20:03:00,
2013-10-25 15:04:00,51.0,31.0,30.43,NE,44,2.0,3.0,46,0.01,,---,0.24,VWS V13.01,2013-10-25 20:04:00,
2013-10-25 15:05:00,51.0,30.4,30.43,NE,44,3.0,4.0,45,0.01,,---,0.24,VWS V13.01,2013-10-25 20:05:00,
2013-10-25 15:06:00,51.0,30.4,30.43,NE,44,3.0,4.0,45,0.01,,---,0.24,VWS V13.01,2013-10-25 20:06:00,
2013-10-25 15:07:00,50.9,30.3,30.43,NE,44,4.0,5.0,45,0.01,,---,0.24,VWS V13.01,2013-10-25 20:07:00,
2013-10-25 15:08:00,50.8,30.2,30.42,NE,44,2.0,5.0,45,0.01,,---,0.24,VWS V13.01,2013-10-25 20:08:00,
2013-10-25 15:09:00,50.8,30.2,30.42,NE,44,0.0,5.0,45,0.01,,---,0.24,VWS V13.01,2013-10-25 20:09:00,
2013-10-25 15:10:00,50.8,31.3,30.42,NE,44,2.0,5.0,47,0.01,,---,0.24,VWS V13.01,2013-10-25 20:10:00,
2013-10-25 15:11:00,50.8,30.8,30.42,NE,44,1.0,5.0,46,0.01,,---,0.24,VWS V13.01,2013-10-25 20:11:00,
2013-10-25 15:12:00,50.8,30.8,30.42,NE,44,0.0,5.0,46,0.01,,---,0.24,VWS V13.01,2013-10-25 20:12:00,
2013-10-25 15:13:00,50.8,30.2,30.42,NE,44,3.0,5.0,45,0.01,,---,0.24,VWS V13.01,2013-10-25 20:13:00,
2013-10-25 15:14:00,50.8,30.8,30.42,NE,44,3.0,5.0,46,0.01,,---,0.24,VWS V13.01,2013-10-25 20:14:00,
2013-10-25 15:15:00,50.8,30.8,30.42,NE,44,0.0,5.0,46,0.01,,---,0.24,VWS V13.01,2013-10-25 20:15:00,
2013-10-25 15:16:00,50.8,30.8,30.42,NE,44,0.0,5.0,46,0.01,,---,0.24,VWS V13.01,2013-10-25 20:16:00,
2013-10-25 15:17:00,50.7,30.1,30.42,NE,44,0.0,5.0,45,0.01,,---,0.24,VWS V13.01,2013-10-25 20:17:00,
2013-10-25 15:18:00,50.7,30.1,30.42,NE,44,3.0,5.0,45,0.01,,---,0.24,VWS V13.01,2013-10-25 20:18:00,
2013-10-25 15:19:00,50.6,30.1,30.42,NE,44,3.0,5.0,45,0.01,,---,0.24,VWS V13.01,2013-10-25 20:19:00,
2013-10-25 15:20:00,50.6,31.1,30.42,NE,44,0.0,5.0,47,0.01,,---,0.24,VWS V13.01,2013-10-25 20:20:00,
2013-10-25 15:21:00,50.6,31.1,30.42,NE,44,2.0,5.0,47,0.01,,---,0.24,VWS V13.01,2013-10-25 20:21:00,
2013-10-25 15:22:00,50.6,30.1,30.42,NE,44,2.0,5.0,45,0.01,,---,0.24,VWS V13.01,2013-10-25 20:22:00,
2013-10-25 15:23:00,50.7,30.7,30.42,NE,44,2.0,5.0,46,0.01,,---,0.24,VWS V13.01,2013-10-25 20:23:00,
2013-10-25 15:24:00,50.7,30.1,30.42,NE,44,0.0,5.0,45,0.01,,---,0.24,VWS V13.01,2013-10-25 20:24:00,
2013-10-25 15:26:00,50.6,31.1,30.42,NE,44,0.0,0.0,47,0.00,,---,0.24,VWS V13.01,2013-10-25 20:26:00,
2013-10-25 15:27:00,50.7,31.2,30.42,NE,44,0.0,0.0,47,0.01,,---,0.24,VWS V13.01,2013-10-25 20:27:00,
2013-10-25 15:28:00,50.7,31.2,30.42,NE,44,0.0,0.0,47,0.01,,---,0.24,VWS V13.01,2013-10-25 20:28:00,
2013-10-25 15:29:00,50.8,32.3,30.42,NE,44,0.0,0.0,49,0.01,,---,0.24,VWS V13.01,2013-10-25 20:29:00,
2013-10-25 15:30:00,50.9,30.9,30.42,NE,44,0.0,0.0,46,0.01,,---,0.24,VWS V13.01,2013-10-25 20:30:00,
2013-10-25 15:31:00,51.0,31.5,30.42,NE,44,0.0,1.0,47,0.01,,---,0.24,VWS V13.01,2013-10-25 20:31:00,
2013-10-25 15:32:00,51.1,31.1,30.42,NE,44,0.0,1.0,46,0.01,,---,0.24,VWS V13.01,2013-10-25 20:32:00,
2013-10-25 15:33:00,51.2,30.6,30.42,NE,44,0.0,1.0,45,0.01,,---,0.24,VWS V13.01,2013-10-25 20:33:00,
2013-10-25 15:34:00,51.2,31.1,30.42,NE,44,0.0,1.0,46,0.01,,---,0.24,VWS V13.01,2013-10-25 20:34:00,
2013-10-25 15:35:00,51.3,31.2,30.42,NE,44,0.0,1.0,46,0.01,,---,0.24,VWS V13.01,2013-10-25 20:35:00,
2013-10-25 15:36:00,51.3,30.1,30.42,NE,44,0.0,1.0,44,0.01,,---,0.24,VWS V13.01,2013-10-25 20:36:00,
2013-10-25 15:37:00,51.3,30.7,30.42,NE,44,1.0,2.0,45,0.01,,---,0.24,VWS V13.01,2013-10-25 20:37:00,
2013-10-25 15:38:00,51.3,30.7,30.42,NE,44,0.0,3.0,45,0.01,,---,0.24,VWS V13.01,2013-10-25 20:38:00,
2013-10-25 15:39:00,51.3,30.7,30.42,NE,44,2.0,3.0,45,0.01,,---,0.24,VWS V13.01,2013-10-25 20:39:00,
2013-10-25 15:40:00,51.3,30.7,30.42,NE,44,0.0,3.0,45,0.01,,---,0.24,VWS V13.01,2013-10-25 20:40:00,
2013-10-25 15:41:00,51.2,30.0,30.42,NE,44,0.0,3.0,44,0.01,,---,0.24,VWS V13.01,2013-10-25 20:41:00,
2013-10-25 15:42:00,51.1,29.4,30.42,NE,44,0.0,3.0,43,0.01,,---,0.24,VWS V13.01,2013-10-25 20:42:00,
2013-10-25 15:43:00,51.1,30.0,30.42,NE,44,0.0,3.0,44,0.01,,---,0.24,VWS V13.01,2013-10-25 20:43:00,
2013-10-25 15:44:00,51.1,30.0,30.42,NE,44,0.0,3.0,44,0.01,,---,0.24,VWS V13.01,2013-10-25 20:44:00,
2013-10-25 15:45:00,51.0,29.3,30.42,NE,44,0.0,3.0,43,0.01,,---,0.24,VWS V13.01,2013-10-25 20:45:00,
2013-10-25 15:46:00,51.0,29.9,30.42,NE,44,0.0,3.0,44,0.01,,---,0.24,VWS V13.01,2013-10-25 20:46:00,
2013-10-25 15:47:00,51.0,30.4,30.42,NE,44,0.0,3.0,45,0.01,,---,0.24,VWS V13.01,2013-10-25 20:47:00,
2013-10-25 15:48:00,51.0,30.4,30.42,NE,44,0.0,3.0,45,0.01,,---,0.24,VWS V13.01,2013-10-25 20:48:00,
2013-10-25 15:49:00,51.1,30.5,30.42,NE,44,0.0,3.0,45,0.01,,---,0.24,VWS V13.01,2013-10-25 20:49:00,
2013-10-25 15:50:00,51.2,30.0,30.42,NE,44,0.0,3.0,44,0.01,,---,0.24,VWS V13.01,2013-10-25 20:50:00,
2013-10-25 15:51:00,51.2,30.6,30.41,NE,44,0.0,3.0,45,0.01,,---,0.24,VWS V13.01,2013-10-25 20:51:00,
2013-10-25 15:52:00,51.3,30.7,30.41,NE,44,0.0,3.0,45,0.01,,---,0.24,VWS V13.01,2013-10-25 20:52:00,
2013-10-25 15:53:00,51.3,30.7,30.41,NE,44,0.0,3.0,45,0.01,,---,0.24,VWS V13.01,2013-10-25 20:53:00,
2013-10-25 15:54:00,51.4,31.3,30.41,NE,44,1.0,3.0,46,0.01,,---,0.24,VWS V13.01,2013-10-25 20:54:00,
2013-10-25 15:55:00,51.4,31.9,30.41,NE,44,0.0,3.0,47,0.01,,---,0.24,VWS V13.01,2013-10-25 20:55:00,
2013-10-25 15:56:00,51.5,31.4,30.41,NE,44,0.0,3.0,46,0.01,,---,0.24,VWS V13.01,2013-10-25 20:56:00,
2013-10-25 15:57:00,51.5,31.4,30.41,NE,44,0.0,3.0,46,0.01,,---,0.24,VWS V13.01,2013-10-25 20:57:00,
2013-10-25 15:58:00,51.7,31.6,30.41,NE,44,0.0,3.0,46,0.01,,---,0.24,VWS V13.01,2013-10-25 20:58:00,
2013-10-25 15:59:00,51.7,31.6,30.41,NE,44,4.0,4.0,46,0.01,,---,0.24,VWS V13.01,2013-10-25 20:59:00,
2013-10-25 16:00:00,51.7,31.1,30.41,NE,44,0.0,4.0,45,0.01,,---,0.24,VWS V13.01,2013-10-25 21:00:00,
2013-10-25 16:01:00,51.7,30.5,30.41,NE,44,0.0,1.0,44,0.00,,---,0.24,VWS V13.01,2013-10-25 21:01:00,
2013-10-25 16:02:00,51.6,31.0,30.41,NE,44,0.0,1.0,45,0.00,,---,0.25,VWS V13.01,2013-10-25 21:02:00,
2013-10-25 16:03:00,51.5,30.3,30.41,NE,44,0.0,1.0,44,0.01,,---,0.25,VWS V13.01,2013-10-25 21:03:00,
2013-10-25 16:04:00,51.5,30.9,30.41,NE,44,0.0,1.0,45,0.01,,---,0.25,VWS V13.01,2013-10-25 21:04:00,
2013-10-25 16:05:00,51.5,30.9,30.41,NE,44,0.0,1.0,45,0.01,,---,0.25,VWS V13.01,2013-10-25 21:05:00,
2013-10-25 16:06:00,51.4,29.7,30.41,NE,44,0.0,1.0,43,0.01,,---,0.25,VWS V13.01,2013-10-25 21:06:00,
2013-10-25 16:07:00,51.4,30.2,30.41,NE,44,0.0,1.0,44,0.01,,---,0.25,VWS V13.01,2013-10-25 21:07:00,
2013-10-25 16:08:00,51.4,30.2,30.41,NE,44,0.0,1.0,44,0.01,,---,0.25,VWS V13.01,2013-10-25 21:08:00,
2013-10-25 16:09:00,51.4,29.7,30.41,NE,44,0.0,1.0,43,0.01,,---,0.25,VWS V13.01,2013-10-25 21:09:00,
2013-10-25 16:10:00,51.3,29.6,30.41,NE,44,0.0,1.0,43,0.01,,---,0.25,VWS V13.01,2013-10-25 21:10:00,
2013-10-25 16:11:00,51.3,30.1,30.41,NE,44,0.0,1.0,44,0.01,,---,0.25,VWS V13.01,2013-10-25 21:11:00,
2013-10-25 16:12:00,51.2,29.5,30.40,NE,44,3.0,3.0,43,0.01,,---,0.25,VWS V13.01,2013-10-25 21:12:00,
2013-10-25 16:13:00,51.2,29.5,30.40,NE,44,1.0,3.0,43,0.01,,---,0.25,VWS V13.01,2013-10-25 21:13:00,
2013-10-25 16:14:00,51.1,29.4,30.40,NE,44,1.0,3.0,43,0.01,,---,0.25,VWS V13.01,2013-10-25 21:14:00,
2013-10-25 16:15:00,51.0,29.3,30.40,NE,44,1.0,3.0,43,0.01,,---,0.25,VWS V13.01,2013-10-25 21:15:00,
2013-10-25 16:16:00,51.0,29.3,30.40,NE,44,0.0,3.0,43,0.01,,---,0.25,VWS V13.01,2013-10-25 21:16:00,
2013-10-25 16:17:00,50.9,30.3,30.40,NE,44,0.0,3.0,45,0.01,,---,0.25,VWS V13.01,2013-10-25 21:17:00,
2013-10-25 16:18:00,50.8,29.7,30.40,NE,44,0.0,3.0,44,0.01,,---,0.25,VWS V13.01,2013-10-25 21:18:00,
2013-10-25 16:19:00,50.7,30.1,30.40,NE,44,0.0,3.0,45,0.01,,---,0.25,VWS V13.01,2013-10-25 21:19:00,
2013-10-25 16:20:00,50.6,29.5,30.40,NE,44,0.0,3.0,44,0.01,,---,0.25,VWS V13.01,2013-10-25 21:20:00,
2013-10-25 16:21:00,50.5,29.4,30.40,NE,44,0.0,3.0,44,0.01,,---,0.25,VWS V13.01,2013-10-25 21:21:00,
2013-10-25 16:22:00,50.5,30.5,30.40,NE,44,0.0,3.0,46,0.01,,---,0.25,VWS V13.01,2013-10-25 21:22:00,
2013-10-25 16:23:00,50.4,29.9,30.40,NE,44,0.0,3.0,45,0.01,,---,0.25,VWS V13.01,2013-10-25 21:23:00,
2013-10-25 16:24:00,50.3,29.8,30.40,NE,44,0.0,3.0,45,0.01,,---,0.25,VWS V13.01,2013-10-25 21:24:00,
2013-10-25 16:25:00,50.2,29.7,30.40,NE,44,0.0,3.0,45,0.01,,---,0.25,VWS V13.01,2013-10-25 21:25:00,
2013-10-25 16:26:00,50.2,30.2,30.40,NE,44,0.0,3.0,46,0.01,,---,0.25,VWS V13.01,2013-10-25 21:26:00,
2013-10-25 16:27:00,50.1,30.7,30.40,NE,44,0.0,3.0,47,0.01,,---,0.25,VWS V13.01,2013-10-25 21:27:00,
2013-10-25 16:28:00,50.1,30.7,30.40,NE,44,0.0,3.0,47,0.01,,---,0.25,VWS V13.01,2013-10-25 21:28:00,
2013-10-25 16:29:00,50.0,30.6,30.40,NE,44,0.0,3.0,47,0.01,,---,0.25,VWS V13.01,2013-10-25 21:29:00,
2013-10-25 16:30:00,50.0,30.0,30.40,NE,44,0.0,3.0,46,0.01,,---,0.25,VWS V13.01,2013-10-25 21:30:00,
2013-10-25 16:31:00,50.0,30.6,30.40,NE,44,0.0,0.0,47,0.01,,---,0.25,VWS V13.01,2013-10-25 21:31:00,
2013-10-25 16:32:00,49.9,30.5,30.40,NE,44,0.0,0.0,47,0.01,,---,0.25,VWS V13.01,2013-10-25 21:32:00,
2013-10-25 16:33:00,49.9,31.0,30.40,NE,44,0.0,2.0,48,0.01,,---,0.25,VWS V13.01,2013-10-25 21:33:00,
2013-10-25 16:34:00,49.9,30.5,30.39,NE,44,0.0,2.0,47,0.01,,---,0.25,VWS V13.01,2013-10-25 21:34:00,
2013-10-25 16:35:00,49.9,31.0,30.40,NE,44,0.0,2.0,48,0.01,,---,0.25,VWS V13.01,2013-10-25 21:35:00,
2013-10-25 16:36:00,49.8,31.4,30.39,NE,44,0.0,2.0,49,0.01,,---,0.25,VWS V13.01,2013-10-25 21:36:00,
2013-10-25 16:37:00,49.8,31.9,30.39,NE,44,3.0,3.0,50,0.01,,---,0.25,VWS V13.01,2013-10-25 21:37:00,
2013-10-25 16:38:00,49.7,30.8,30.39,NE,44,2.0,3.0,48,0.01,,---,0.25,VWS V13.01,2013-10-25 21:38:00,
2013-10-25 16:39:00,49.7,30.3,30.39,NE,44,3.0,3.0,47,0.01,,---,0.25,VWS V13.01,2013-10-25 21:39:00,
2013-10-25 16:40:00,49.6,30.2,30.39,NE,44,2.0,3.0,47,0.01,,---,0.25,VWS V13.01,2013-10-25 21:40:00,
2013-10-25 16:41:00,49.5,30.1,30.39,NE,44,0.0,3.0,47,0.01,,---,0.25,VWS V13.01,2013-10-25 21:41:00,
2013-10-25 16:42:00,49.5,30.1,30.39,NE,44,0.0,3.0,47,0.01,,---,0.25,VWS V13.01,2013-10-25 21:42:00,
2013-10-25 16:43:00,49.4,30.0,30.39,NE,44,0.0,3.0,47,0.01,,---,0.25,VWS V13.01,2013-10-25 21:43:00,
2013-10-25 16:44:00,49.3,31.0,30.39,NE,44,0.0,3.0,49,0.01,,---,0.25,VWS V13.01,2013-10-25 21:44:00,
2013-10-25 16:45:00,49.3,30.5,30.39,NE,44,0.0,3.0,48,0.01,,---,0.25,VWS V13.01,2013-10-25 21:45:00,
2013-10-25 16:46:00,49.2,30.9,30.39,NE,44,1.0,3.0,49,0.01,,---,0.25,VWS V13.01,2013-10-25 21:46:00,
2013-10-25 16:47:00,49.2,30.9,30.39,NE,44,1.0,3.0,49,0.01,,---,0.25,VWS V13.01,2013-10-25 21:47:00,
2013-10-25 16:48:00,49.2,30.9,30.39,NE,44,0.0,3.0,49,0.01,,---,0.25,VWS V13.01,2013-10-25 21:48:00,
2013-10-25 16:49:00,49.1,30.8,30.39,NE,44,0.0,3.0,49,0.01,,---,0.25,VWS V13.01,2013-10-25 21:49:00,
2013-10-25 16:50:00,49.1,30.3,30.39,NE,44,0.0,3.0,48,0.01,,---,0.25,VWS V13.01,2013-10-25 21:50:00,
2013-10-25 16:51:00,49.0,30.2,30.39,NE,44,0.0,3.0,48,0.01,,---,0.25,VWS V13.01,2013-10-25 21:51:00,
2013-10-25 16:52:00,48.9,30.1,30.39,NE,44,0.0,3.0,48,0.01,,---,0.25,VWS V13.01,2013-10-25 21:52:00,
2013-10-25 16:53:00,48.8,30.0,30.39,NE,44,0.0,3.0,48,0.01,,---,0.25,VWS V13.01,2013-10-25 21:53:00,
2013-10-25 16:54:00,48.8,30.5,30.39,NE,44,0.0,3.0,49,0.01,,---,0.25,VWS V13.01,2013-10-25 21:54:00,
2013-10-25 16:55:00,48.7,30.9,30.39,NE,44,1.0,3.0,50,0.01,,---,0.25,VWS V13.01,2013-10-25 21:55:00,
2013-10-25 16:56:00,48.7,30.4,30.39,NE,44,0.0,3.0,49,0.01,,---,0.25,VWS V13.01,2013-10-25 21:56:00,
2013-10-25 16:57:00,48.6,30.3,30.39,NE,44,0.0,3.0,49,0.01,,---,0.25,VWS V13.01,2013-10-25 21:57:00,
2013-10-25 16:58:00,48.5,30.2,30.39,NE,44,1.0,3.0,49,0.01,,---,0.25,VWS V13.01,2013-10-25 21:58:00,
2013-10-25 16:59:00,48.4,30.1,30.39,NE,44,3.0,3.0,49,0.01,,---,0.25,VWS V13.01,2013-10-25 21:59:00,
2013-10-25 17:00:00,48.4,30.1,30.39,NE,44,2.0,3.0,49,0.01,,---,0.25,VWS V13.01,2013-10-25 22:00:00,
2013-10-25 17:01:00,48.3,30.0,30.39,NE,44,0.0,2.0,49,0.01,,---,0.25,VWS V13.01,2013-10-25 22:01:00,
2013-10-25 17:02:00,48.3,30.0,30.39,NE,44,0.0,2.0,49,0.01,,---,0.25,VWS V13.01,2013-10-25 22:02:00,
2013-10-25 17:03:00,48.2,30.0,30.39,NE,44,2.0,2.0,49,0.01,,---,0.25,VWS V13.01,2013-10-25 22:03:00,
2013-10-25 17:04:00,48.1,30.4,30.39,NE,44,0.0,3.0,50,0.01,,---,0.25,VWS V13.01,2013-10-25 22:04:00,
2013-10-25 17:05:00,48.1,30.4,30.39,NE,44,0.0,3.0,50,0.01,,---,0.25,VWS V13.01,2013-10-25 22:05:00,
2013-10-25 17:06:00,48.0,30.3,30.38,NE,44,0.0,3.0,50,0.01,,---,0.25,VWS V13.01,2013-10-25 22:06:00,
2013-10-25 17:07:00,48.0,30.3,30.39,NE,44,0.0,3.0,50,0.01,,---,0.25,VWS V13.01,2013-10-25 22:07:00,
2013-10-25 17:08:00,47.9,30.7,30.38,NE,44,0.0,3.0,51,0.01,,---,0.25,VWS V13.01,2013-10-25 22:08:00,
2013-10-25 17:09:00,47.9,30.7,30.39,NE,44,0.0,3.0,51,0.01,,---,0.25,VWS V13.01,2013-10-25 22:09:00,
2013-10-25 17:10:00,47.8,30.6,30.39,NE,44,0.0,3.0,51,0.01,,---,0.25,VWS V13.01,2013-10-25 22:10:00,
2013-10-25 17:11:00,47.7,31.0,30.39,NE,44,0.0,3.0,52,0.01,,---,0.25,VWS V13.01,2013-10-25 22:11:00,
2013-10-25 17:12:00,47.7,31.0,30.38,NE,44,0.0,3.0,52,0.01,,---,0.25,VWS V13.01,2013-10-25 22:12:00,
2013-10-25 17:13:00,47.6,31.3,30.39,NE,44,0.0,3.0,53,0.01,,---,0.25,VWS V13.01,2013-10-25 22:13:00,
2013-10-25 17:14:00,47.6,31.3,30.38,NE,44,0.0,3.0,53,0.01,,---,0.25,VWS V13.01,2013-10-25 22:14:00,
2013-10-25 17:15:00,47.4,31.1,30.39,NE,44,0.0,3.0,53,0.01,,---,0.25,VWS V13.01,2013-10-25 22:15:00,
2013-10-25 17:16:00,47.4,31.6,30.38,NE,44,0.0,3.0,54,0.01,,---,0.25,VWS V13.01,2013-10-25 22:16:00,
2013-10-25 17:17:00,47.3,31.5,30.39,NE,44,0.0,3.0,54,0.01,,---,0.25,VWS V13.01,2013-10-25 22:17:00,
2013-10-25 17:18:00,47.2,31.4,30.39,NE,44,0.0,3.0,54,0.01,,---,0.25,VWS V13.01,2013-10-25 22:18:00,
2013-10-25 17:19:00,47.1,31.8,30.38,NE,44,0.0,3.0,55,0.01,,---,0.25,VWS V13.01,2013-10-25 22:19:00,
2013-10-25 17:20:00,47.0,31.7,30.38,NE,44,0.0,3.0,55,0.01,,---,0.25,VWS V13.01,2013-10-25 22:20:00,
2013-10-25 17:21:00,46.9,32.0,30.38,NE,44,0.0,3.0,56,0.01,,---,0.25,VWS V13.01,2013-10-25 22:21:00,
2013-10-25 17:22:00,46.9,32.0,30.38,NE,44,0.0,3.0,56,0.01,,---,0.25,VWS V13.01,2013-10-25 22:22:00,
2013-10-25 17:23:00,46.8,32.4,30.38,NE,44,0.0,3.0,57,0.01,,---,0.25,VWS V13.01,2013-10-25 22:23:00,
2013-10-25 17:24:00,46.7,32.3,30.39,NE,44,0.0,3.0,57,0.01,,---,0.25,VWS V13.01,2013-10-25 22:24:00,
2013-10-25 17:25:00,46.6,32.2,30.38,NE,44,0.0,3.0,57,0.01,,---,0.25,VWS V13.01,2013-10-25 22:25:00,
2013-10-25 17:26:00,46.5,32.5,30.38,NE,44,0.0,3.0,58,0.01,,---,0.25,VWS V13.01,2013-10-25 22:26:00,
2013-10-25 17:27:00,46.4,32.9,30.38,NE,44,0.0,3.0,59,0.01,,---,0.25,VWS V13.01,2013-10-25 22:27:00,
2013-10-25 17:28:00,46.3,33.2,30.38,NE,44,0.0,3.0,60,0.01,,---,0.25,VWS V13.01,2013-10-25 22:28:00,
2013-10-25 17:29:00,46.1,33.0,30.38,NE,44,0.0,3.0,60,0.01,,---,0.25,VWS V13.01,2013-10-25 22:29:00,
2013-10-25 17:30:00,46.0,32.9,30.38,NE,44,0.0,3.0,60,0.01,,---,0.25,VWS V13.01,2013-10-25 22:30:00,
2013-10-25 17:31:00,45.9,32.8,30.38,NE,44,0.0,0.0,60,0.00,,---,0.25,VWS V13.01,2013-10-25 22:31:00,
2013-10-25 17:32:00,45.8,32.7,30.38,NE,44,0.0,0.0,60,0.01,,---,0.26,VWS V13.01,2013-10-25 22:32:00,
2013-10-25 17:33:00,45.6,32.9,30.38,NE,44,0.0,0.0,61,0.01,,---,0.26,VWS V13.01,2013-10-25 22:33:00,
2013-10-25 17:34:00,45.5,33.2,30.38,NE,44,0.0,0.0,62,0.01,,---,0.26,VWS V13.01,2013-10-25 22:34:00,
2013-10-25 17:35:00,45.4,33.2,30.38,NE,44,0.0,0.0,62,0.01,,---,0.26,VWS V13.01,2013-10-25 22:35:00,
2013-10-25 17:36:00,45.3,33.5,30.38,NE,44,0.0,0.0,63,0.01,,---,0.26,VWS V13.01,2013-10-25 22:36:00,
2013-10-25 17:37:00,45.1,33.3,30.38,NE,44,0.0,0.0,63,0.01,,---,0.26,VWS V13.01,2013-10-25 22:37:00,
2013-10-25 17:38:00,45.0,33.6,30.38,NE,44,0.0,0.0,64,0.01,,---,0.26,VWS V13.01,2013-10-25 22:38:00,
2013-10-25 17:39:00,45.0,33.6,30.38,NE,44,0.0,0.0,64,0.01,,---,0.26,VWS V13.01,2013-10-25 22:39:00,
2013-10-25 17:40:00,44.8,33.4,30.38,NE,44,0.0,0.0,64,0.01,,---,0.26,VWS V13.01,2013-10-25 22:40:00,
2013-10-25 17:41:00,44.7,33.7,30.38,NE,44,0.0,0.0,65,0.01,,---,0.26,VWS V13.01,2013-10-25 22:41:00,
2013-10-25 17:42:00,44.6,34.0,30.38,NE,44,0.0,0.0,66,0.01,,---,0.26,VWS V13.01,2013-10-25 22:42:00,
2013-10-25 17:43:00,44.5,33.9,30.38,NE,44,0.0,0.0,66,0.01,,---,0.26,VWS V13.01,2013-10-25 22:43:00,
2013-10-25 17:44:00,44.3,33.7,30.38,NE,44,0.0,0.0,66,0.01,,---,0.26,VWS V13.01,2013-10-25 22:44:00,
2013-10-25 17:45:00,44.2,33.6,30.38,NE,44,0.0,0.0,66,0.01,,---,0.26,VWS V13.01,2013-10-25 22:45:00,
2013-10-25 17:46:00,44.0,33.4,30.38,NE,44,0.0,0.0,66,0.01,,---,0.26,VWS V13.01,2013-10-25 22:46:00,
2013-10-25 17:47:00,43.9,33.7,30.38,NE,44,0.0,0.0,67,0.01,,---,0.26,VWS V13.01,2013-10-25 22:47:00,
2013-10-25 17:48:00,43.8,33.6,30.38,NE,44,0.0,0.0,67,0.01,,---,0.26,VWS V13.01,2013-10-25 22:48:00,
2013-10-25 17:49:00,43.7,33.5,30.38,NE,44,0.0,0.0,67,0.01,,---,0.26,VWS V13.01,2013-10-25 22:49:00,
2013-10-25 17:50:00,43.6,33.8,30.38,NE,44,0.0,0.0,68,0.01,,---,0.26,VWS V13.01,2013-10-25 22:50:00,
2013-10-25 17:51:00,43.4,33.6,30.38,NE,44,0.0,0.0,68,0.01,,---,0.26,VWS V13.01,2013-10-25 22:51:00,
2013-10-25 17:52:00,43.3,33.5,30.38,NE,44,0.0,0.0,68,0.01,,---,0.26,VWS V13.01,2013-10-25 22:52:00,
2013-10-25 17:53:00,43.2,33.4,30.38,NE,44,0.0,0.0,68,0.01,,---,0.26,VWS V13.01,2013-10-25 22:53:00,
2013-10-25 17:54:00,43.0,33.2,30.38,NE,44,0.0,0.0,68,0.01,,---,0.26,VWS V13.01,2013-10-25 22:54:00,
2013-10-25 17:55:00,42.9,33.1,30.38,NE,44,0.0,0.0,68,0.01,,---,0.26,VWS V13.01,2013-10-25 22:55:00,
2013-10-25 17:56:00,42.7,33.2,30.38,NE,44,0.0,0.0,69,0.01,,---,0.26,VWS V13.01,2013-10-25 22:56:00,
2013-10-25 17:57:00,42.6,33.2,30.38,NE,44,0.0,0.0,69,0.01,,---,0.26,VWS V13.01,2013-10-25 22:57:00,
2013-10-25 17:58:00,42.5,33.1,30.38,NE,44,0.0,0.0,69,0.01,,---,0.26,VWS V13.01,2013-10-25 22:58:00,